<?xml version="1.0" encoding="utf-8"?>
<gpx xmlns:xsi="http://www.w3.org/2001/XMLSchema-instance" xmlns:xsd="http://www.w3.org/2001/XMLSchema" version="1.1" creator="Shapelink.com" xmlns="http://www.topografix.com/GPX/1/1" xmlns:gpxtpx="http://www.garmin.com/xmlschemas/TrackPointExtension/v1">
  <metadata>
    <name>Rullskidor 8.08 km, 2019-01-06</name>
    <desc></desc>
    <author><name>Stefan Östlund</name></author> 
    <time>2019-01-06T17:32:50Z</time>
  </metadata>
  <trk>
    <name>Rullskidor 8.08 km, 2019-01-06</name>
    <trkseg>
      <trkpt lat="36.762176383466" lon="-3.860595348766">
        <ele>104.8</ele>
        <time>2019-01-06T17:32:50Z</time>
      </trkpt>
      <trkpt lat="36.762183005167" lon="-3.860567856134">
        <ele>106.4</ele>
        <time>2019-01-06T17:32:51Z</time>
      </trkpt>
      <trkpt lat="36.762188537221" lon="-3.860509601929">
        <ele>105.2</ele>
        <time>2019-01-06T17:32:53Z</time>
      </trkpt>
      <trkpt lat="36.762218041509" lon="-3.860307262863">
        <ele>105.6</ele>
        <time>2019-01-06T17:32:59Z</time>
      </trkpt>
      <trkpt lat="36.762237068422" lon="-3.860115233534">
        <ele>106.4</ele>
        <time>2019-01-06T17:33:05Z</time>
      </trkpt>
      <trkpt lat="36.762250144186" lon="-3.85994709262">
        <ele>107.4</ele>
        <time>2019-01-06T17:33:10Z</time>
      </trkpt>
      <trkpt lat="36.762273445868" lon="-3.859744083002">
        <ele>108.4</ele>
        <time>2019-01-06T17:33:16Z</time>
      </trkpt>
      <trkpt lat="36.762277050085" lon="-3.859709968669">
        <ele>108.6</ele>
        <time>2019-01-06T17:33:17Z</time>
      </trkpt>
      <trkpt lat="36.762289287659" lon="-3.859513916028">
        <ele>109.6</ele>
        <time>2019-01-06T17:33:23Z</time>
      </trkpt>
      <trkpt lat="36.762298088654" lon="-3.859337644671">
        <ele>110.4</ele>
        <time>2019-01-06T17:33:29Z</time>
      </trkpt>
      <trkpt lat="36.762302363423" lon="-3.859276289163">
        <ele>110.6</ele>
        <time>2019-01-06T17:33:31Z</time>
      </trkpt>
      <trkpt lat="36.762324994553" lon="-3.859105298403">
        <ele>111.4</ele>
        <time>2019-01-06T17:33:37Z</time>
      </trkpt>
      <trkpt lat="36.762329856055" lon="-3.859050732234">
        <ele>111.8</ele>
        <time>2019-01-06T17:33:39Z</time>
      </trkpt>
      <trkpt lat="36.762341339258" lon="-3.858899690396">
        <ele>112.4</ele>
        <time>2019-01-06T17:33:45Z</time>
      </trkpt>
      <trkpt lat="36.76234620076" lon="-3.858850237186">
        <ele>112.8</ele>
        <time>2019-01-06T17:33:47Z</time>
      </trkpt>
      <trkpt lat="36.762349302063" lon="-3.85882475621">
        <ele>113</ele>
        <time>2019-01-06T17:33:48Z</time>
      </trkpt>
      <trkpt lat="36.762358438334" lon="-3.858800197243">
        <ele>113.2</ele>
        <time>2019-01-06T17:33:49Z</time>
      </trkpt>
      <trkpt lat="36.762410238476" lon="-3.858698105701">
        <ele>114</ele>
        <time>2019-01-06T17:33:55Z</time>
      </trkpt>
      <trkpt lat="36.762457177116" lon="-3.858628787388">
        <ele>115</ele>
        <time>2019-01-06T17:34:01Z</time>
      </trkpt>
      <trkpt lat="36.762460529876" lon="-3.858616549814">
        <ele>115.2</ele>
        <time>2019-01-06T17:34:02Z</time>
      </trkpt>
      <trkpt lat="36.762505792136" lon="-3.858542789094">
        <ele>116.4</ele>
        <time>2019-01-06T17:34:08Z</time>
      </trkpt>
      <trkpt lat="36.762559771572" lon="-3.858480763034">
        <ele>117.4</ele>
        <time>2019-01-06T17:34:13Z</time>
      </trkpt>
      <trkpt lat="36.762589527317" lon="-3.858435668412">
        <ele>118.2</ele>
        <time>2019-01-06T17:34:16Z</time>
      </trkpt>
      <trkpt lat="36.762602016348" lon="-3.858419826621">
        <ele>118.4</ele>
        <time>2019-01-06T17:34:17Z</time>
      </trkpt>
      <trkpt lat="36.762671669937" lon="-3.858339528019">
        <ele>119.6</ele>
        <time>2019-01-06T17:34:23Z</time>
      </trkpt>
      <trkpt lat="36.762719362948" lon="-3.858283536927">
        <ele>120.4</ele>
        <time>2019-01-06T17:34:27Z</time>
      </trkpt>
      <trkpt lat="36.762748783417" lon="-3.858264090919">
        <ele>120.8</ele>
        <time>2019-01-06T17:34:29Z</time>
      </trkpt>
      <trkpt lat="36.762798068989" lon="-3.858194521149">
        <ele>122</ele>
        <time>2019-01-06T17:34:34Z</time>
      </trkpt>
      <trkpt lat="36.762850958778" lon="-3.85813157308">
        <ele>123</ele>
        <time>2019-01-06T17:34:39Z</time>
      </trkpt>
      <trkpt lat="36.762913906847" lon="-3.858043730768">
        <ele>124.2</ele>
        <time>2019-01-06T17:34:45Z</time>
      </trkpt>
      <trkpt lat="36.762956319261" lon="-3.857988326409">
        <ele>125.2</ele>
        <time>2019-01-06T17:34:49Z</time>
      </trkpt>
      <trkpt lat="36.762964449704" lon="-3.85797566974">
        <ele>125.2</ele>
        <time>2019-01-06T17:34:50Z</time>
      </trkpt>
      <trkpt lat="36.763022284814" lon="-3.857904004495">
        <ele>126.2</ele>
        <time>2019-01-06T17:34:56Z</time>
      </trkpt>
      <trkpt lat="36.763034187112" lon="-3.857893191844">
        <ele>126.6</ele>
        <time>2019-01-06T17:34:57Z</time>
      </trkpt>
      <trkpt lat="36.763106606728" lon="-3.857830746689">
        <ele>127.6</ele>
        <time>2019-01-06T17:35:03Z</time>
      </trkpt>
      <trkpt lat="36.763170476806" lon="-3.857775929063">
        <ele>128.8</ele>
        <time>2019-01-06T17:35:08Z</time>
      </trkpt>
      <trkpt lat="36.763208446813" lon="-3.857738797246">
        <ele>129.6</ele>
        <time>2019-01-06T17:35:12Z</time>
      </trkpt>
      <trkpt lat="36.763216996351" lon="-3.857728822785">
        <ele>129.8</ele>
        <time>2019-01-06T17:35:13Z</time>
      </trkpt>
      <trkpt lat="36.763230658848" lon="-3.857721446713">
        <ele>130</ele>
        <time>2019-01-06T17:35:14Z</time>
      </trkpt>
      <trkpt lat="36.763286063207" lon="-3.857709041501">
        <ele>131.2</ele>
        <time>2019-01-06T17:35:18Z</time>
      </trkpt>
      <trkpt lat="36.763306934138" lon="-3.857724296559">
        <ele>131.6</ele>
        <time>2019-01-06T17:35:20Z</time>
      </trkpt>
      <trkpt lat="36.763353034588" lon="-3.857802667324">
        <ele>132</ele>
        <time>2019-01-06T17:35:24Z</time>
      </trkpt>
      <trkpt lat="36.763349765647" lon="-3.857848767774">
        <ele>132</ele>
        <time>2019-01-06T17:35:26Z</time>
      </trkpt>
      <trkpt lat="36.763258402937" lon="-3.858016992507">
        <ele>131.2</ele>
        <time>2019-01-06T17:35:31Z</time>
      </trkpt>
      <trkpt lat="36.763227809002" lon="-3.858281441452">
        <ele>130</ele>
        <time>2019-01-06T17:35:35Z</time>
      </trkpt>
      <trkpt lat="36.763214481781" lon="-3.8584567908">
        <ele>128.6</ele>
        <time>2019-01-06T17:35:37Z</time>
      </trkpt>
      <trkpt lat="36.763201489836" lon="-3.858658626952">
        <ele>127.6</ele>
        <time>2019-01-06T17:35:39Z</time>
      </trkpt>
      <trkpt lat="36.763177266145" lon="-3.858998764454">
        <ele>125.6</ele>
        <time>2019-01-06T17:35:42Z</time>
      </trkpt>
      <trkpt lat="36.763160250888" lon="-3.85924804216">
        <ele>123.6</ele>
        <time>2019-01-06T17:35:44Z</time>
      </trkpt>
      <trkpt lat="36.763154383558" lon="-3.859375866135">
        <ele>122.6</ele>
        <time>2019-01-06T17:35:45Z</time>
      </trkpt>
      <trkpt lat="36.7631475104" lon="-3.85950201373">
        <ele>121</ele>
        <time>2019-01-06T17:35:46Z</time>
      </trkpt>
      <trkpt lat="36.763139463776" lon="-3.859623635099">
        <ele>120</ele>
        <time>2019-01-06T17:35:47Z</time>
      </trkpt>
      <trkpt lat="36.76312487927" lon="-3.859848940571">
        <ele>118.2</ele>
        <time>2019-01-06T17:35:49Z</time>
      </trkpt>
      <trkpt lat="36.7631139828" lon="-3.860043819746">
        <ele>116.6</ele>
        <time>2019-01-06T17:35:51Z</time>
      </trkpt>
      <trkpt lat="36.763077270078" lon="-3.860293432728">
        <ele>115.4</ele>
        <time>2019-01-06T17:35:54Z</time>
      </trkpt>
      <trkpt lat="36.763023039185" lon="-3.860645807804">
        <ele>114</ele>
        <time>2019-01-06T17:35:59Z</time>
      </trkpt>
      <trkpt lat="36.76296729955" lon="-3.860927020549">
        <ele>113</ele>
        <time>2019-01-06T17:36:04Z</time>
      </trkpt>
      <trkpt lat="36.762913823028" lon="-3.861197169186">
        <ele>112</ele>
        <time>2019-01-06T17:36:10Z</time>
      </trkpt>
      <trkpt lat="36.762903680929" lon="-3.861422893753">
        <ele>111.4</ele>
        <time>2019-01-06T17:36:16Z</time>
      </trkpt>
      <trkpt lat="36.76291868453" lon="-3.8615245662">
        <ele>111.2</ele>
        <time>2019-01-06T17:36:22Z</time>
      </trkpt>
      <trkpt lat="36.762916924331" lon="-3.861530517349">
        <ele>111.2</ele>
        <time>2019-01-06T17:36:28Z</time>
      </trkpt>
      <trkpt lat="36.762916924331" lon="-3.861530517349">
        <ele>111</ele>
        <time>2019-01-06T17:36:34Z</time>
      </trkpt>
      <trkpt lat="36.762916924331" lon="-3.861530517349">
        <ele>111</ele>
        <time>2019-01-06T17:36:40Z</time>
      </trkpt>
      <trkpt lat="36.762936202701" lon="-3.861546945873">
        <ele>111.4</ele>
        <time>2019-01-06T17:36:46Z</time>
      </trkpt>
      <trkpt lat="36.762980291495" lon="-3.861593130142">
        <ele>111.4</ele>
        <time>2019-01-06T17:36:49Z</time>
      </trkpt>
      <trkpt lat="36.763081041933" lon="-3.861662113179">
        <ele>113.2</ele>
        <time>2019-01-06T17:36:54Z</time>
      </trkpt>
      <trkpt lat="36.763193107936" lon="-3.861711231113">
        <ele>114.4</ele>
        <time>2019-01-06T17:36:59Z</time>
      </trkpt>
      <trkpt lat="36.763312298554" lon="-3.861741908867">
        <ele>115.4</ele>
        <time>2019-01-06T17:37:05Z</time>
      </trkpt>
      <trkpt lat="36.763444564936" lon="-3.861766048739">
        <ele>116.6</ele>
        <time>2019-01-06T17:37:11Z</time>
      </trkpt>
      <trkpt lat="36.763462166926" lon="-3.861768563309">
        <ele>117</ele>
        <time>2019-01-06T17:37:12Z</time>
      </trkpt>
      <trkpt lat="36.763497706182" lon="-3.861777196666">
        <ele>117.6</ele>
        <time>2019-01-06T17:37:14Z</time>
      </trkpt>
      <trkpt lat="36.763587308693" lon="-3.861809299343">
        <ele>118.8</ele>
        <time>2019-01-06T17:37:20Z</time>
      </trkpt>
      <trkpt lat="36.763664589811" lon="-3.861833271577">
        <ele>119.8</ele>
        <time>2019-01-06T17:37:24Z</time>
      </trkpt>
      <trkpt lat="36.76369401028" lon="-3.861848191359">
        <ele>120.8</ele>
        <time>2019-01-06T17:37:27Z</time>
      </trkpt>
      <trkpt lat="36.763705158207" lon="-3.861853555775">
        <ele>121</ele>
        <time>2019-01-06T17:37:28Z</time>
      </trkpt>
      <trkpt lat="36.763742709119" lon="-3.861856908535">
        <ele>121.2</ele>
        <time>2019-01-06T17:37:30Z</time>
      </trkpt>
      <trkpt lat="36.763841615539" lon="-3.861830924645">
        <ele>122.2</ele>
        <time>2019-01-06T17:37:33Z</time>
      </trkpt>
      <trkpt lat="36.76389685226" lon="-3.861835450871">
        <ele>123</ele>
        <time>2019-01-06T17:37:36Z</time>
      </trkpt>
      <trkpt lat="36.763908084006" lon="-3.86185732763">
        <ele>123.4</ele>
        <time>2019-01-06T17:37:39Z</time>
      </trkpt>
      <trkpt lat="36.763976899405" lon="-3.861903930994">
        <ele>124.6</ele>
        <time>2019-01-06T17:37:44Z</time>
      </trkpt>
      <trkpt lat="36.763997854155" lon="-3.861911307066">
        <ele>125</ele>
        <time>2019-01-06T17:37:45Z</time>
      </trkpt>
      <trkpt lat="36.764024089502" lon="-3.861921365346">
        <ele>125.8</ele>
        <time>2019-01-06T17:37:47Z</time>
      </trkpt>
      <trkpt lat="36.764087372847" lon="-3.861938883517">
        <ele>126.8</ele>
        <time>2019-01-06T17:37:52Z</time>
      </trkpt>
      <trkpt lat="36.764149818002" lon="-3.861955898774">
        <ele>128.2</ele>
        <time>2019-01-06T17:37:56Z</time>
      </trkpt>
      <trkpt lat="36.764216370288" lon="-3.86197467423">
        <ele>129.2</ele>
        <time>2019-01-06T17:38:00Z</time>
      </trkpt>
      <trkpt lat="36.764295998338" lon="-3.861991773306">
        <ele>130.2</ele>
        <time>2019-01-06T17:38:06Z</time>
      </trkpt>
      <trkpt lat="36.764305134609" lon="-3.861984900148">
        <ele>130.6</ele>
        <time>2019-01-06T17:38:07Z</time>
      </trkpt>
      <trkpt lat="36.764324664436" lon="-3.861972243479">
        <ele>130.8</ele>
        <time>2019-01-06T17:38:09Z</time>
      </trkpt>
      <trkpt lat="36.76437378237" lon="-3.861874259068">
        <ele>131.6</ele>
        <time>2019-01-06T17:38:13Z</time>
      </trkpt>
      <trkpt lat="36.764389288885" lon="-3.861824554401">
        <ele>132</ele>
        <time>2019-01-06T17:38:15Z</time>
      </trkpt>
      <trkpt lat="36.76433019649" lon="-3.861680134264">
        <ele>132.2</ele>
        <time>2019-01-06T17:38:21Z</time>
      </trkpt>
      <trkpt lat="36.764268757163" lon="-3.861542419647">
        <ele>132.2</ele>
        <time>2019-01-06T17:38:27Z</time>
      </trkpt>
      <trkpt lat="36.76422123179" lon="-3.86142314521">
        <ele>131.8</ele>
        <time>2019-01-06T17:38:33Z</time>
      </trkpt>
      <trkpt lat="36.764187871828" lon="-3.861362208797">
        <ele>131.4</ele>
        <time>2019-01-06T17:38:39Z</time>
      </trkpt>
      <trkpt lat="36.764170437476" lon="-3.861315940709">
        <ele>131.4</ele>
        <time>2019-01-06T17:38:45Z</time>
      </trkpt>
      <trkpt lat="36.764168677277" lon="-3.861306469162">
        <ele>131.4</ele>
        <time>2019-01-06T17:38:46Z</time>
      </trkpt>
      <trkpt lat="36.764169096372" lon="-3.861313509958">
        <ele>131.2</ele>
        <time>2019-01-06T17:38:49Z</time>
      </trkpt>
      <trkpt lat="36.763154383558" lon="-3.860136439741">
        <ele>113</ele>
        <time>2019-01-06T17:40:59Z</time>
      </trkpt>
      <trkpt lat="36.763149270599" lon="-3.860127219651">
        <ele>113</ele>
        <time>2019-01-06T17:41:00Z</time>
      </trkpt>
      <trkpt lat="36.763122699976" lon="-3.860088662911">
        <ele>113</ele>
        <time>2019-01-06T17:41:03Z</time>
      </trkpt>
      <trkpt lat="36.763110378583" lon="-3.859970897216">
        <ele>112.8</ele>
        <time>2019-01-06T17:41:09Z</time>
      </trkpt>
      <trkpt lat="36.763133344989" lon="-3.859730420505">
        <ele>113.4</ele>
        <time>2019-01-06T17:41:15Z</time>
      </trkpt>
      <trkpt lat="36.763141391613" lon="-3.859680883476">
        <ele>113.6</ele>
        <time>2019-01-06T17:41:16Z</time>
      </trkpt>
      <trkpt lat="36.763154467377" lon="-3.859582060875">
        <ele>114</ele>
        <time>2019-01-06T17:41:18Z</time>
      </trkpt>
      <trkpt lat="36.763160837621" lon="-3.859389360994">
        <ele>114.8</ele>
        <time>2019-01-06T17:41:24Z</time>
      </trkpt>
      <trkpt lat="36.763177098507" lon="-3.859202025529">
        <ele>115.4</ele>
        <time>2019-01-06T17:41:30Z</time>
      </trkpt>
      <trkpt lat="36.763181373276" lon="-3.859135557062">
        <ele>116.6</ele>
        <time>2019-01-06T17:41:33Z</time>
      </trkpt>
      <trkpt lat="36.763163268372" lon="-3.859134551234">
        <ele>117.2</ele>
        <time>2019-01-06T17:41:39Z</time>
      </trkpt>
      <trkpt lat="36.763163184553" lon="-3.859176628372">
        <ele>117.2</ele>
        <time>2019-01-06T17:41:41Z</time>
      </trkpt>
      <trkpt lat="36.763164777114" lon="-3.859293639696">
        <ele>117.2</ele>
        <time>2019-01-06T17:41:44Z</time>
      </trkpt>
      <trkpt lat="36.76316092144" lon="-3.859460607144">
        <ele>115.8</ele>
        <time>2019-01-06T17:41:47Z</time>
      </trkpt>
      <trkpt lat="36.7631558923" lon="-3.859521795014">
        <ele>115</ele>
        <time>2019-01-06T17:41:48Z</time>
      </trkpt>
      <trkpt lat="36.763146169296" lon="-3.859702508778">
        <ele>113.8</ele>
        <time>2019-01-06T17:41:51Z</time>
      </trkpt>
      <trkpt lat="36.763133428808" lon="-3.860015740381">
        <ele>113.6</ele>
        <time>2019-01-06T17:41:57Z</time>
      </trkpt>
      <trkpt lat="36.763072240938" lon="-3.860359817376">
        <ele>114</ele>
        <time>2019-01-06T17:42:03Z</time>
      </trkpt>
      <trkpt lat="36.763002000616" lon="-3.860680341232">
        <ele>114</ele>
        <time>2019-01-06T17:42:08Z</time>
      </trkpt>
      <trkpt lat="36.762903010377" lon="-3.861078900577">
        <ele>114.2</ele>
        <time>2019-01-06T17:42:14Z</time>
      </trkpt>
      <trkpt lat="36.76285498209" lon="-3.861267996241">
        <ele>113.2</ele>
        <time>2019-01-06T17:42:17Z</time>
      </trkpt>
      <trkpt lat="36.76285749666" lon="-3.861404369754">
        <ele>113</ele>
        <time>2019-01-06T17:42:19Z</time>
      </trkpt>
      <trkpt lat="36.762872081166" lon="-3.86151450792">
        <ele>112.6</ele>
        <time>2019-01-06T17:42:21Z</time>
      </trkpt>
      <trkpt lat="36.762855904099" lon="-3.861638811497">
        <ele>112.2</ele>
        <time>2019-01-06T17:42:27Z</time>
      </trkpt>
      <trkpt lat="36.762816928264" lon="-3.861653563641">
        <ele>112</ele>
        <time>2019-01-06T17:42:33Z</time>
      </trkpt>
      <trkpt lat="36.762777784791" lon="-3.861651719623">
        <ele>112</ele>
        <time>2019-01-06T17:42:36Z</time>
      </trkpt>
      <trkpt lat="36.76273512092" lon="-3.861559099628">
        <ele>111.8</ele>
        <time>2019-01-06T17:42:42Z</time>
      </trkpt>
      <trkpt lat="36.762739144232" lon="-3.861518531232">
        <ele>111.8</ele>
        <time>2019-01-06T17:42:43Z</time>
      </trkpt>
      <trkpt lat="36.762770576357" lon="-3.86145164367">
        <ele>111.6</ele>
        <time>2019-01-06T17:42:45Z</time>
      </trkpt>
      <trkpt lat="36.762796979342" lon="-3.861402525736">
        <ele>110.6</ele>
        <time>2019-01-06T17:42:51Z</time>
      </trkpt>
      <trkpt lat="36.762769319072" lon="-3.86138375028">
        <ele>110.8</ele>
        <time>2019-01-06T17:42:57Z</time>
      </trkpt>
      <trkpt lat="36.762741072069" lon="-3.86138542666">
        <ele>110.8</ele>
        <time>2019-01-06T17:42:59Z</time>
      </trkpt>
      <trkpt lat="36.762710729591" lon="-3.861383415004">
        <ele>110.8</ele>
        <time>2019-01-06T17:43:01Z</time>
      </trkpt>
      <trkpt lat="36.762666640797" lon="-3.861380229882">
        <ele>110.4</ele>
        <time>2019-01-06T17:43:04Z</time>
      </trkpt>
      <trkpt lat="36.762574942811" lon="-3.861342427513">
        <ele>109.4</ele>
        <time>2019-01-06T17:43:10Z</time>
      </trkpt>
      <trkpt lat="36.762503109928" lon="-3.861307810266">
        <ele>108.4</ele>
        <time>2019-01-06T17:43:15Z</time>
      </trkpt>
      <trkpt lat="36.762424739163" lon="-3.861260117255">
        <ele>107.4</ele>
        <time>2019-01-06T17:43:21Z</time>
      </trkpt>
      <trkpt lat="36.762363718931" lon="-3.861213932986">
        <ele>106.4</ele>
        <time>2019-01-06T17:43:26Z</time>
      </trkpt>
      <trkpt lat="36.76229507117" lon="-3.861165485604">
        <ele>105.2</ele>
        <time>2019-01-06T17:43:32Z</time>
      </trkpt>
      <trkpt lat="36.762234889128" lon="-3.861146291053">
        <ele>104.6</ele>
        <time>2019-01-06T17:43:38Z</time>
      </trkpt>
      <trkpt lat="36.762229608531" lon="-3.861150649641">
        <ele>104.2</ele>
        <time>2019-01-06T17:43:41Z</time>
      </trkpt>
      <trkpt lat="36.762227596875" lon="-3.86115324803">
        <ele>103.6</ele>
        <time>2019-01-06T17:43:47Z</time>
      </trkpt>
      <trkpt lat="36.762229105617" lon="-3.861160121188">
        <ele>104</ele>
        <time>2019-01-06T17:43:53Z</time>
      </trkpt>
      <trkpt lat="36.762216448948" lon="-3.861171185296">
        <ele>104</ele>
        <time>2019-01-06T17:43:59Z</time>
      </trkpt>
      <trkpt lat="36.762203792279" lon="-3.861187362363">
        <ele>104</ele>
        <time>2019-01-06T17:44:00Z</time>
      </trkpt>
      <trkpt lat="36.762175545276" lon="-3.861225835284">
        <ele>103.8</ele>
        <time>2019-01-06T17:44:02Z</time>
      </trkpt>
      <trkpt lat="36.762129696283" lon="-3.861428677264">
        <ele>104.2</ele>
        <time>2019-01-06T17:44:08Z</time>
      </trkpt>
      <trkpt lat="36.762154171431" lon="-3.861559602542">
        <ele>105.4</ele>
        <time>2019-01-06T17:44:13Z</time>
      </trkpt>
      <trkpt lat="36.762164481168" lon="-3.861671165631">
        <ele>106.4</ele>
        <time>2019-01-06T17:44:17Z</time>
      </trkpt>
      <trkpt lat="36.762152746508" lon="-3.861694634951">
        <ele>106.8</ele>
        <time>2019-01-06T17:44:18Z</time>
      </trkpt>
      <trkpt lat="36.762128858093" lon="-3.861735454804">
        <ele>107.8</ele>
        <time>2019-01-06T17:44:21Z</time>
      </trkpt>
      <trkpt lat="36.762097509787" lon="-3.861736460632">
        <ele>107.8</ele>
        <time>2019-01-06T17:44:27Z</time>
      </trkpt>
      <trkpt lat="36.762095498131" lon="-3.861743417609">
        <ele>107.8</ele>
        <time>2019-01-06T17:44:29Z</time>
      </trkpt>
      <trkpt lat="36.762088708792" lon="-3.861816423958">
        <ele>108.2</ele>
        <time>2019-01-06T17:44:35Z</time>
      </trkpt>
      <trkpt lat="36.762082506186" lon="-3.861904517727">
        <ele>109</ele>
        <time>2019-01-06T17:44:39Z</time>
      </trkpt>
      <trkpt lat="36.762066580576" lon="-3.861952126919">
        <ele>109.8</ele>
        <time>2019-01-06T17:44:41Z</time>
      </trkpt>
      <trkpt lat="36.762066329119" lon="-3.861979451913">
        <ele>110.2</ele>
        <time>2019-01-06T17:44:42Z</time>
      </trkpt>
      <trkpt lat="36.762066329119" lon="-3.862171313604">
        <ele>110.8</ele>
        <time>2019-01-06T17:44:48Z</time>
      </trkpt>
      <trkpt lat="36.762068340775" lon="-3.862211798181">
        <ele>111.2</ele>
        <time>2019-01-06T17:44:50Z</time>
      </trkpt>
      <trkpt lat="36.762068508413" lon="-3.862237362976">
        <ele>111.4</ele>
        <time>2019-01-06T17:44:51Z</time>
      </trkpt>
      <trkpt lat="36.762061551436" lon="-3.862372898299">
        <ele>112</ele>
        <time>2019-01-06T17:44:57Z</time>
      </trkpt>
      <trkpt lat="36.762089966077" lon="-3.862419501663">
        <ele>112.2</ele>
        <time>2019-01-06T17:45:03Z</time>
      </trkpt>
      <trkpt lat="36.762090720448" lon="-3.86242394407">
        <ele>112.2</ele>
        <time>2019-01-06T17:45:05Z</time>
      </trkpt>
      <trkpt lat="36.76209558195" lon="-3.862417490007">
        <ele>112.6</ele>
        <time>2019-01-06T17:45:11Z</time>
      </trkpt>
      <trkpt lat="36.76209558195" lon="-3.862417490007">
        <ele>112.8</ele>
        <time>2019-01-06T17:45:17Z</time>
      </trkpt>
      <trkpt lat="36.762092313009" lon="-3.862401061483">
        <ele>112.6</ele>
        <time>2019-01-06T17:45:21Z</time>
      </trkpt>
      <trkpt lat="36.762069346603" lon="-3.862322858356">
        <ele>112.4</ele>
        <time>2019-01-06T17:45:24Z</time>
      </trkpt>
      <trkpt lat="36.762081416539" lon="-3.86219763277">
        <ele>111.2</ele>
        <time>2019-01-06T17:45:28Z</time>
      </trkpt>
      <trkpt lat="36.762107065153" lon="-3.862151029406">
        <ele>110.8</ele>
        <time>2019-01-06T17:45:34Z</time>
      </trkpt>
      <trkpt lat="36.76211486032" lon="-3.862137450728">
        <ele>110.6</ele>
        <time>2019-01-06T17:45:40Z</time>
      </trkpt>
      <trkpt lat="36.762112764845" lon="-3.862120686928">
        <ele>110.6</ele>
        <time>2019-01-06T17:45:43Z</time>
      </trkpt>
      <trkpt lat="36.762107903343" lon="-3.86207274246">
        <ele>111</ele>
        <time>2019-01-06T17:45:46Z</time>
      </trkpt>
      <trkpt lat="36.762111256103" lon="-3.86197215966">
        <ele>110.6</ele>
        <time>2019-01-06T17:45:52Z</time>
      </trkpt>
      <trkpt lat="36.762110920827" lon="-3.86194617577">
        <ele>110.2</ele>
        <time>2019-01-06T17:45:54Z</time>
      </trkpt>
      <trkpt lat="36.762116704338" lon="-3.861842994581">
        <ele>109.2</ele>
        <time>2019-01-06T17:46:00Z</time>
      </trkpt>
      <trkpt lat="36.762114608863" lon="-3.861805695126">
        <ele>109</ele>
        <time>2019-01-06T17:46:02Z</time>
      </trkpt>
      <trkpt lat="36.762099689081" lon="-3.861715254425">
        <ele>108</ele>
        <time>2019-01-06T17:46:08Z</time>
      </trkpt>
      <trkpt lat="36.762073872829" lon="-3.861615258358">
        <ele>107.2</ele>
        <time>2019-01-06T17:46:14Z</time>
      </trkpt>
      <trkpt lat="36.762075968304" lon="-3.86159581235">
        <ele>107</ele>
        <time>2019-01-06T17:46:15Z</time>
      </trkpt>
      <trkpt lat="36.762110753189" lon="-3.861497408844">
        <ele>106</ele>
        <time>2019-01-06T17:46:21Z</time>
      </trkpt>
      <trkpt lat="36.762116788157" lon="-3.861476286456">
        <ele>105.8</ele>
        <time>2019-01-06T17:46:22Z</time>
      </trkpt>
      <trkpt lat="36.762136737079" lon="-3.861373021448">
        <ele>104.6</ele>
        <time>2019-01-06T17:46:28Z</time>
      </trkpt>
      <trkpt lat="36.762157272734" lon="-3.86126388911">
        <ele>103.8</ele>
        <time>2019-01-06T17:46:34Z</time>
      </trkpt>
      <trkpt lat="36.762158530019" lon="-3.861245868025">
        <ele>103.6</ele>
        <time>2019-01-06T17:46:35Z</time>
      </trkpt>
      <trkpt lat="36.762162553331" lon="-3.861214352081">
        <ele>102.6</ele>
        <time>2019-01-06T17:46:41Z</time>
      </trkpt>
      <trkpt lat="36.762156518363" lon="-3.861221895791">
        <ele>102.2</ele>
        <time>2019-01-06T17:46:47Z</time>
      </trkpt>
      <trkpt lat="36.762159787304" lon="-3.861228182216">
        <ele>102.4</ele>
        <time>2019-01-06T17:46:53Z</time>
      </trkpt>
      <trkpt lat="36.762164229711" lon="-3.861215441728">
        <ele>102.4</ele>
        <time>2019-01-06T17:46:57Z</time>
      </trkpt>
      <trkpt lat="36.762166995738" lon="-3.861125503941">
        <ele>102.6</ele>
        <time>2019-01-06T17:47:00Z</time>
      </trkpt>
      <trkpt lat="36.762191889981" lon="-3.860857702236">
        <ele>103.4</ele>
        <time>2019-01-06T17:47:06Z</time>
      </trkpt>
      <trkpt lat="36.762207647953" lon="-3.860760304558">
        <ele>103.6</ele>
        <time>2019-01-06T17:47:08Z</time>
      </trkpt>
      <trkpt lat="36.762221226631" lon="-3.860619656276">
        <ele>104</ele>
        <time>2019-01-06T17:47:11Z</time>
      </trkpt>
      <trkpt lat="36.762238996259" lon="-3.8604181554">
        <ele>104.8</ele>
        <time>2019-01-06T17:47:17Z</time>
      </trkpt>
      <trkpt lat="36.762227932151" lon="-3.86020274057">
        <ele>105.2</ele>
        <time>2019-01-06T17:47:23Z</time>
      </trkpt>
      <trkpt lat="36.762232709834" lon="-3.860157729767">
        <ele>105.4</ele>
        <time>2019-01-06T17:47:24Z</time>
      </trkpt>
      <trkpt lat="36.762240672639" lon="-3.860115652629">
        <ele>106</ele>
        <time>2019-01-06T17:47:25Z</time>
      </trkpt>
      <trkpt lat="36.762256346792" lon="-3.859923204205">
        <ele>107</ele>
        <time>2019-01-06T17:47:31Z</time>
      </trkpt>
      <trkpt lat="36.762264728692" lon="-3.859731510152">
        <ele>108</ele>
        <time>2019-01-06T17:47:37Z</time>
      </trkpt>
      <trkpt lat="36.762266405072" lon="-3.859696557629">
        <ele>108</ele>
        <time>2019-01-06T17:47:38Z</time>
      </trkpt>
      <trkpt lat="36.762274032601" lon="-3.859570158577">
        <ele>108.6</ele>
        <time>2019-01-06T17:47:42Z</time>
      </trkpt>
      <trkpt lat="36.762278055913" lon="-3.859481478075">
        <ele>109.4</ele>
        <time>2019-01-06T17:47:45Z</time>
      </trkpt>
      <trkpt lat="36.762306554373" lon="-3.859313169523">
        <ele>109.8</ele>
        <time>2019-01-06T17:47:51Z</time>
      </trkpt>
      <trkpt lat="36.762327341485" lon="-3.859133880682">
        <ele>110.4</ele>
        <time>2019-01-06T17:47:57Z</time>
      </trkpt>
      <trkpt lat="36.762329269322" lon="-3.859105466041">
        <ele>110.6</ele>
        <time>2019-01-06T17:47:58Z</time>
      </trkpt>
      <trkpt lat="36.762334130824" lon="-3.859017791367">
        <ele>110.8</ele>
        <time>2019-01-06T17:48:01Z</time>
      </trkpt>
      <trkpt lat="36.762309990952" lon="-3.858928607951">
        <ele>111.2</ele>
        <time>2019-01-06T17:48:07Z</time>
      </trkpt>
      <trkpt lat="36.762292137505" lon="-3.858940845525">
        <ele>111.2</ele>
        <time>2019-01-06T17:48:13Z</time>
      </trkpt>
      <trkpt lat="36.762289287659" lon="-3.85904184742">
        <ele>111.4</ele>
        <time>2019-01-06T17:48:19Z</time>
      </trkpt>
      <trkpt lat="36.762294903532" lon="-3.859143603686">
        <ele>110.8</ele>
        <time>2019-01-06T17:48:24Z</time>
      </trkpt>
      <trkpt lat="36.762271685669" lon="-3.859301267225">
        <ele>110.6</ele>
        <time>2019-01-06T17:48:30Z</time>
      </trkpt>
      <trkpt lat="36.762276882447" lon="-3.859491033441">
        <ele>109.6</ele>
        <time>2019-01-06T17:48:36Z</time>
      </trkpt>
      <trkpt lat="36.762255424783" lon="-3.859550125836">
        <ele>109.4</ele>
        <time>2019-01-06T17:48:38Z</time>
      </trkpt>
      <trkpt lat="36.762261795027" lon="-3.859747687219">
        <ele>108.4</ele>
        <time>2019-01-06T17:48:44Z</time>
      </trkpt>
      <trkpt lat="36.76222131045" lon="-3.859953379045">
        <ele>107.6</ele>
        <time>2019-01-06T17:48:50Z</time>
      </trkpt>
      <trkpt lat="36.762219131156" lon="-3.860031498353">
        <ele>107.2</ele>
        <time>2019-01-06T17:48:52Z</time>
      </trkpt>
      <trkpt lat="36.762210916894" lon="-3.860295695841">
        <ele>105</ele>
        <time>2019-01-06T17:48:58Z</time>
      </trkpt>
      <trkpt lat="36.762192560533" lon="-3.860606412874">
        <ele>104</ele>
        <time>2019-01-06T17:49:04Z</time>
      </trkpt>
      <trkpt lat="36.762188704859" lon="-3.860710013158">
        <ele>103.8</ele>
        <time>2019-01-06T17:49:06Z</time>
      </trkpt>
      <trkpt lat="36.762191387067" lon="-3.861016706879">
        <ele>103</ele>
        <time>2019-01-06T17:49:12Z</time>
      </trkpt>
      <trkpt lat="36.762202534994" lon="-3.861124665751">
        <ele>103.2</ele>
        <time>2019-01-06T17:49:18Z</time>
      </trkpt>
      <trkpt lat="36.762175126181" lon="-3.861117122041">
        <ele>103.4</ele>
        <time>2019-01-06T17:49:22Z</time>
      </trkpt>
      <trkpt lat="36.76215928439" lon="-3.8610300341">
        <ele>103.6</ele>
        <time>2019-01-06T17:49:25Z</time>
      </trkpt>
      <trkpt lat="36.762194320732" lon="-3.860820821876">
        <ele>103.4</ele>
        <time>2019-01-06T17:49:31Z</time>
      </trkpt>
      <trkpt lat="36.762219131156" lon="-3.860598198612">
        <ele>103.8</ele>
        <time>2019-01-06T17:49:37Z</time>
      </trkpt>
      <trkpt lat="36.76221795769" lon="-3.860407175111">
        <ele>104.8</ele>
        <time>2019-01-06T17:49:42Z</time>
      </trkpt>
      <trkpt lat="36.762223908839" lon="-3.860278010032">
        <ele>106</ele>
        <time>2019-01-06T17:49:46Z</time>
      </trkpt>
      <trkpt lat="36.762223741201" lon="-3.860215145782">
        <ele>105</ele>
        <time>2019-01-06T17:49:48Z</time>
      </trkpt>
      <trkpt lat="36.762230195264" lon="-3.860075922423">
        <ele>106.2</ele>
        <time>2019-01-06T17:49:52Z</time>
      </trkpt>
      <trkpt lat="36.762253496946" lon="-3.859942482575">
        <ele>106.6</ele>
        <time>2019-01-06T17:49:56Z</time>
      </trkpt>
      <trkpt lat="36.762248551625" lon="-3.859751710531">
        <ele>107</ele>
        <time>2019-01-06T17:50:02Z</time>
      </trkpt>
      <trkpt lat="36.762252658756" lon="-3.859715165447">
        <ele>107.2</ele>
        <time>2019-01-06T17:50:03Z</time>
      </trkpt>
      <trkpt lat="36.762270093108" lon="-3.859604608186">
        <ele>108.6</ele>
        <time>2019-01-06T17:50:08Z</time>
      </trkpt>
      <trkpt lat="36.762278475008" lon="-3.859551047845">
        <ele>109</ele>
        <time>2019-01-06T17:50:10Z</time>
      </trkpt>
      <trkpt lat="36.762287276003" lon="-3.859490781984">
        <ele>109.6</ele>
        <time>2019-01-06T17:50:12Z</time>
      </trkpt>
      <trkpt lat="36.762287946555" lon="-3.859466642112">
        <ele>109.8</ele>
        <time>2019-01-06T17:50:13Z</time>
      </trkpt>
      <trkpt lat="36.76229590936" lon="-3.859449710674">
        <ele>109.6</ele>
        <time>2019-01-06T17:50:14Z</time>
      </trkpt>
      <trkpt lat="36.762299932672" lon="-3.859369244434">
        <ele>109.6</ele>
        <time>2019-01-06T17:50:17Z</time>
      </trkpt>
      <trkpt lat="36.762290544944" lon="-3.859206719393">
        <ele>110.2</ele>
        <time>2019-01-06T17:50:23Z</time>
      </trkpt>
      <trkpt lat="36.762314600997" lon="-3.859087780232">
        <ele>111</ele>
        <time>2019-01-06T17:50:27Z</time>
      </trkpt>
      <trkpt lat="36.762315439187" lon="-3.859060203781">
        <ele>111.2</ele>
        <time>2019-01-06T17:50:28Z</time>
      </trkpt>
      <trkpt lat="36.762317115567" lon="-3.858956687316">
        <ele>111.6</ele>
        <time>2019-01-06T17:50:32Z</time>
      </trkpt>
      <trkpt lat="36.762293059514" lon="-3.858820229984">
        <ele>112</ele>
        <time>2019-01-06T17:50:38Z</time>
      </trkpt>
      <trkpt lat="36.762288114193" lon="-3.858791563886">
        <ele>112</ele>
        <time>2019-01-06T17:50:39Z</time>
      </trkpt>
      <trkpt lat="36.762271769488" lon="-3.858787959669">
        <ele>112.2</ele>
        <time>2019-01-06T17:50:45Z</time>
      </trkpt>
      <trkpt lat="36.762276547171" lon="-3.85886163657">
        <ele>112.2</ele>
        <time>2019-01-06T17:50:51Z</time>
      </trkpt>
      <trkpt lat="36.762279816112" lon="-3.858913436712">
        <ele>112.2</ele>
        <time>2019-01-06T17:50:53Z</time>
      </trkpt>
      <trkpt lat="36.762286773089" lon="-3.859059114134">
        <ele>111.4</ele>
        <time>2019-01-06T17:50:59Z</time>
      </trkpt>
      <trkpt lat="36.762281576311" lon="-3.859254328585">
        <ele>111</ele>
        <time>2019-01-06T17:51:05Z</time>
      </trkpt>
      <trkpt lat="36.762280067569" lon="-3.859290370755">
        <ele>111</ele>
        <time>2019-01-06T17:51:06Z</time>
      </trkpt>
      <trkpt lat="36.762268081452" lon="-3.859504612119">
        <ele>109.8</ele>
        <time>2019-01-06T17:51:11Z</time>
      </trkpt>
      <trkpt lat="36.762257604077" lon="-3.859762523182">
        <ele>108.8</ele>
        <time>2019-01-06T17:51:16Z</time>
      </trkpt>
      <trkpt lat="36.76224980891" lon="-3.859997048744">
        <ele>106.6</ele>
        <time>2019-01-06T17:51:20Z</time>
      </trkpt>
      <trkpt lat="36.762247042883" lon="-3.860058152795">
        <ele>105.4</ele>
        <time>2019-01-06T17:51:21Z</time>
      </trkpt>
      <trkpt lat="36.762236062594" lon="-3.860183797476">
        <ele>104</ele>
        <time>2019-01-06T17:51:23Z</time>
      </trkpt>
      <trkpt lat="36.762215359301" lon="-3.860599372078">
        <ele>104</ele>
        <time>2019-01-06T17:51:29Z</time>
      </trkpt>
      <trkpt lat="36.762196080931" lon="-3.860904557057">
        <ele>102.8</ele>
        <time>2019-01-06T17:51:33Z</time>
      </trkpt>
      <trkpt lat="36.762168588299" lon="-3.861290375914">
        <ele>102.6</ele>
        <time>2019-01-06T17:51:39Z</time>
      </trkpt>
      <trkpt lat="36.762162050417" lon="-3.861417529337">
        <ele>103.8</ele>
        <time>2019-01-06T17:51:45Z</time>
      </trkpt>
      <trkpt lat="36.762159954942" lon="-3.86141308693">
        <ele>104.2</ele>
        <time>2019-01-06T17:51:46Z</time>
      </trkpt>
      <trkpt lat="36.762163810616" lon="-3.861264392024">
        <ele>104.8</ele>
        <time>2019-01-06T17:51:51Z</time>
      </trkpt>
      <trkpt lat="36.762170432317" lon="-3.861093401264">
        <ele>103.2</ele>
        <time>2019-01-06T17:51:55Z</time>
      </trkpt>
      <trkpt lat="36.762197170578" lon="-3.860891313655">
        <ele>102.6</ele>
        <time>2019-01-06T17:52:00Z</time>
      </trkpt>
      <trkpt lat="36.762230949635" lon="-3.860710348434">
        <ele>104.4</ele>
        <time>2019-01-06T17:52:05Z</time>
      </trkpt>
      <trkpt lat="36.76224310339" lon="-3.860525778996">
        <ele>104.8</ele>
        <time>2019-01-06T17:52:11Z</time>
      </trkpt>
      <trkpt lat="36.762244109218" lon="-3.860370965303">
        <ele>105.4</ele>
        <time>2019-01-06T17:52:15Z</time>
      </trkpt>
      <trkpt lat="36.76224980891" lon="-3.860225036424">
        <ele>106.6</ele>
        <time>2019-01-06T17:52:19Z</time>
      </trkpt>
      <trkpt lat="36.762284761433" lon="-3.860021272435">
        <ele>107.8</ele>
        <time>2019-01-06T17:52:25Z</time>
      </trkpt>
      <trkpt lat="36.762272691497" lon="-3.859826812355">
        <ele>108.4</ele>
        <time>2019-01-06T17:52:31Z</time>
      </trkpt>
      <trkpt lat="36.76227411642" lon="-3.859730336686">
        <ele>109</ele>
        <time>2019-01-06T17:52:34Z</time>
      </trkpt>
      <trkpt lat="36.762269506375" lon="-3.859585413635">
        <ele>109.8</ele>
        <time>2019-01-06T17:52:39Z</time>
      </trkpt>
      <trkpt lat="36.762265483063" lon="-3.859562614867">
        <ele>110</ele>
        <time>2019-01-06T17:52:40Z</time>
      </trkpt>
      <trkpt lat="36.762283923243" lon="-3.859403023491">
        <ele>109.4</ele>
        <time>2019-01-06T17:52:46Z</time>
      </trkpt>
      <trkpt lat="36.762303704527" lon="-3.859243180658">
        <ele>109.8</ele>
        <time>2019-01-06T17:52:52Z</time>
      </trkpt>
      <trkpt lat="36.762308817486" lon="-3.859162630599">
        <ele>110.2</ele>
        <time>2019-01-06T17:52:55Z</time>
      </trkpt>
      <trkpt lat="36.762322815259" lon="-3.859020389756">
        <ele>111</ele>
        <time>2019-01-06T17:53:00Z</time>
      </trkpt>
      <trkpt lat="36.762319294861" lon="-3.8589597048">
        <ele>111.2</ele>
        <time>2019-01-06T17:53:02Z</time>
      </trkpt>
      <trkpt lat="36.762304207441" lon="-3.858776392647">
        <ele>111.8</ele>
        <time>2019-01-06T17:53:08Z</time>
      </trkpt>
      <trkpt lat="36.762285431985" lon="-3.858742278314">
        <ele>112</ele>
        <time>2019-01-06T17:53:11Z</time>
      </trkpt>
      <trkpt lat="36.762274200239" lon="-3.858797179759">
        <ele>112</ele>
        <time>2019-01-06T17:53:17Z</time>
      </trkpt>
      <trkpt lat="36.762282833596" lon="-3.858881920768">
        <ele>112.2</ele>
        <time>2019-01-06T17:53:20Z</time>
      </trkpt>
      <trkpt lat="36.762285515804" lon="-3.859069340052">
        <ele>112</ele>
        <time>2019-01-06T17:53:26Z</time>
      </trkpt>
      <trkpt lat="36.762274451696" lon="-3.859333872816">
        <ele>111.2</ele>
        <time>2019-01-06T17:53:32Z</time>
      </trkpt>
      <trkpt lat="36.762270009289" lon="-3.859387936071">
        <ele>110.4</ele>
        <time>2019-01-06T17:53:33Z</time>
      </trkpt>
      <trkpt lat="36.762258023172" lon="-3.859555490252">
        <ele>108.8</ele>
        <time>2019-01-06T17:53:36Z</time>
      </trkpt>
      <trkpt lat="36.762256849706" lon="-3.859677363078">
        <ele>107.4</ele>
        <time>2019-01-06T17:53:38Z</time>
      </trkpt>
      <trkpt lat="36.762233212748" lon="-3.860071228559">
        <ele>106</ele>
        <time>2019-01-06T17:53:44Z</time>
      </trkpt>
      <trkpt lat="36.762216784224" lon="-3.860282787715">
        <ele>104.8</ele>
        <time>2019-01-06T17:53:47Z</time>
      </trkpt>
      <trkpt lat="36.762209911066" lon="-3.860422262531">
        <ele>104.4</ele>
        <time>2019-01-06T17:53:49Z</time>
      </trkpt>
      <trkpt lat="36.762198008768" lon="-3.860807494655">
        <ele>103.8</ele>
        <time>2019-01-06T17:53:54Z</time>
      </trkpt>
      <trkpt lat="36.762181328787" lon="-3.860951160421">
        <ele>102.6</ele>
        <time>2019-01-06T17:53:56Z</time>
      </trkpt>
      <trkpt lat="36.76215509344" lon="-3.861299428366">
        <ele>103.6</ele>
        <time>2019-01-06T17:54:02Z</time>
      </trkpt>
      <trkpt lat="36.762156266906" lon="-3.861345528816">
        <ele>104</ele>
        <time>2019-01-06T17:54:03Z</time>
      </trkpt>
      <trkpt lat="36.762152159775" lon="-3.861441333933">
        <ele>105.2</ele>
        <time>2019-01-06T17:54:06Z</time>
      </trkpt>
      <trkpt lat="36.762137323812" lon="-3.861428928721">
        <ele>104.8</ele>
        <time>2019-01-06T17:54:09Z</time>
      </trkpt>
      <trkpt lat="36.76214252059" lon="-3.861320969849">
        <ele>104.6</ele>
        <time>2019-01-06T17:54:12Z</time>
      </trkpt>
      <trkpt lat="36.762152075956" lon="-3.861228936587">
        <ele>104</ele>
        <time>2019-01-06T17:54:14Z</time>
      </trkpt>
      <trkpt lat="36.762157021277" lon="-3.861181997947">
        <ele>102.2</ele>
        <time>2019-01-06T17:54:15Z</time>
      </trkpt>
      <trkpt lat="36.76218778285" lon="-3.860956357199">
        <ele>103.2</ele>
        <time>2019-01-06T17:54:20Z</time>
      </trkpt>
      <trkpt lat="36.762195745655" lon="-3.860756281246">
        <ele>104.2</ele>
        <time>2019-01-06T17:54:25Z</time>
      </trkpt>
      <trkpt lat="36.762204211374" lon="-3.860550254144">
        <ele>104</ele>
        <time>2019-01-06T17:54:31Z</time>
      </trkpt>
      <trkpt lat="36.76222382502" lon="-3.860336096599">
        <ele>104</ele>
        <time>2019-01-06T17:54:37Z</time>
      </trkpt>
      <trkpt lat="36.762240840277" lon="-3.860136188284">
        <ele>103.8</ele>
        <time>2019-01-06T17:54:43Z</time>
      </trkpt>
      <trkpt lat="36.762259615733" lon="-3.859923707119">
        <ele>104.8</ele>
        <time>2019-01-06T17:54:49Z</time>
      </trkpt>
      <trkpt lat="36.762260286285" lon="-3.859844917259">
        <ele>105.4</ele>
        <time>2019-01-06T17:54:52Z</time>
      </trkpt>
      <trkpt lat="36.76225986719" lon="-3.859656156871">
        <ele>106</ele>
        <time>2019-01-06T17:54:58Z</time>
      </trkpt>
      <trkpt lat="36.76226321995" lon="-3.859588850214">
        <ele>106.4</ele>
        <time>2019-01-06T17:55:00Z</time>
      </trkpt>
      <trkpt lat="36.762289874392" lon="-3.859430683761">
        <ele>107.2</ele>
        <time>2019-01-06T17:55:06Z</time>
      </trkpt>
      <trkpt lat="36.76228752746" lon="-3.859331693522">
        <ele>107.6</ele>
        <time>2019-01-06T17:55:10Z</time>
      </trkpt>
      <trkpt lat="36.762288030374" lon="-3.859307050736">
        <ele>107.8</ele>
        <time>2019-01-06T17:55:11Z</time>
      </trkpt>
      <trkpt lat="36.762285431985" lon="-3.859164558436">
        <ele>108.6</ele>
        <time>2019-01-06T17:55:16Z</time>
      </trkpt>
      <trkpt lat="36.762298759206" lon="-3.858989376726">
        <ele>109.4</ele>
        <time>2019-01-06T17:55:22Z</time>
      </trkpt>
      <trkpt lat="36.762297250464" lon="-3.858961967913">
        <ele>109.4</ele>
        <time>2019-01-06T17:55:23Z</time>
      </trkpt>
      <trkpt lat="36.762288281831" lon="-3.85888510589">
        <ele>109.8</ele>
        <time>2019-01-06T17:55:26Z</time>
      </trkpt>
      <trkpt lat="36.762272020945" lon="-3.858757114277">
        <ele>110.2</ele>
        <time>2019-01-06T17:55:32Z</time>
      </trkpt>
      <trkpt lat="36.762281157216" lon="-3.858789468411">
        <ele>110</ele>
        <time>2019-01-06T17:55:38Z</time>
      </trkpt>
      <trkpt lat="36.762286270175" lon="-3.858874460877">
        <ele>110</ele>
        <time>2019-01-06T17:55:43Z</time>
      </trkpt>
      <trkpt lat="36.762300267948" lon="-3.858950233253">
        <ele>110</ele>
        <time>2019-01-06T17:55:46Z</time>
      </trkpt>
      <trkpt lat="36.762304961812" lon="-3.859136981985">
        <ele>109.8</ele>
        <time>2019-01-06T17:55:52Z</time>
      </trkpt>
      <trkpt lat="36.762286437813" lon="-3.859380559999">
        <ele>110.4</ele>
        <time>2019-01-06T17:55:58Z</time>
      </trkpt>
      <trkpt lat="36.762268584366" lon="-3.859650960093">
        <ele>109.4</ele>
        <time>2019-01-06T17:56:04Z</time>
      </trkpt>
      <trkpt lat="36.762255340964" lon="-3.859950948294">
        <ele>108.6</ele>
        <time>2019-01-06T17:56:10Z</time>
      </trkpt>
      <trkpt lat="36.7622255014" lon="-3.860287900674">
        <ele>107.4</ele>
        <time>2019-01-06T17:56:16Z</time>
      </trkpt>
      <trkpt lat="36.762207815591" lon="-3.860544554452">
        <ele>106.4</ele>
        <time>2019-01-06T17:56:20Z</time>
      </trkpt>
      <trkpt lat="36.762194907465" lon="-3.860811098872">
        <ele>105.2</ele>
        <time>2019-01-06T17:56:24Z</time>
      </trkpt>
      <trkpt lat="36.762195158922" lon="-3.860879662814">
        <ele>103.8</ele>
        <time>2019-01-06T17:56:25Z</time>
      </trkpt>
      <trkpt lat="36.762198846958" lon="-3.8609462151">
        <ele>102.2</ele>
        <time>2019-01-06T17:56:26Z</time>
      </trkpt>
      <trkpt lat="36.762201361528" lon="-3.861129862529">
        <ele>101.4</ele>
        <time>2019-01-06T17:56:29Z</time>
      </trkpt>
      <trkpt lat="36.762172779249" lon="-3.861393305646">
        <ele>103.6</ele>
        <time>2019-01-06T17:56:35Z</time>
      </trkpt>
      <trkpt lat="36.762156686001" lon="-3.861421887925">
        <ele>104.4</ele>
        <time>2019-01-06T17:56:40Z</time>
      </trkpt>
      <trkpt lat="36.762180909692" lon="-3.861159618274">
        <ele>102.6</ele>
        <time>2019-01-06T17:56:46Z</time>
      </trkpt>
      <trkpt lat="36.762185771194" lon="-3.861112763453">
        <ele>102.4</ele>
        <time>2019-01-06T17:56:47Z</time>
      </trkpt>
      <trkpt lat="36.762189962144" lon="-3.860916207898">
        <ele>103.8</ele>
        <time>2019-01-06T17:56:51Z</time>
      </trkpt>
      <trkpt lat="36.762204881926" lon="-3.860731303184">
        <ele>104.2</ele>
        <time>2019-01-06T17:56:56Z</time>
      </trkpt>
      <trkpt lat="36.762228518884" lon="-3.860553690723">
        <ele>104.4</ele>
        <time>2019-01-06T17:57:02Z</time>
      </trkpt>
      <trkpt lat="36.762227093961" lon="-3.860520833675">
        <ele>104.8</ele>
        <time>2019-01-06T17:57:03Z</time>
      </trkpt>
      <trkpt lat="36.762215024025" lon="-3.860346993069">
        <ele>104.8</ele>
        <time>2019-01-06T17:57:08Z</time>
      </trkpt>
      <trkpt lat="36.762219550251" lon="-3.860317488781">
        <ele>105</ele>
        <time>2019-01-06T17:57:09Z</time>
      </trkpt>
      <trkpt lat="36.76223220692" lon="-3.860150018419">
        <ele>106.2</ele>
        <time>2019-01-06T17:57:14Z</time>
      </trkpt>
      <trkpt lat="36.762235643499" lon="-3.859948098448">
        <ele>106.6</ele>
        <time>2019-01-06T17:57:20Z</time>
      </trkpt>
      <trkpt lat="36.762243019571" lon="-3.859786746873">
        <ele>107</ele>
        <time>2019-01-06T17:57:26Z</time>
      </trkpt>
      <trkpt lat="36.762241762286" lon="-3.859762187906">
        <ele>107.2</ele>
        <time>2019-01-06T17:57:27Z</time>
      </trkpt>
      <trkpt lat="36.762249054539" lon="-3.859586084187">
        <ele>108.2</ele>
        <time>2019-01-06T17:57:33Z</time>
      </trkpt>
      <trkpt lat="36.762272104764" lon="-3.859474940193">
        <ele>109</ele>
        <time>2019-01-06T17:57:37Z</time>
      </trkpt>
      <trkpt lat="36.762274451696" lon="-3.859446274095">
        <ele>109.8</ele>
        <time>2019-01-06T17:57:38Z</time>
      </trkpt>
      <trkpt lat="36.762278139732" lon="-3.859349714607">
        <ele>108.8</ele>
        <time>2019-01-06T17:57:42Z</time>
      </trkpt>
      <trkpt lat="36.762282833596" lon="-3.859329598047">
        <ele>110.4</ele>
        <time>2019-01-06T17:57:43Z</time>
      </trkpt>
      <trkpt lat="36.762285934899" lon="-3.859208144316">
        <ele>111.6</ele>
        <time>2019-01-06T17:57:48Z</time>
      </trkpt>
      <trkpt lat="36.76229171841" lon="-3.859151817948">
        <ele>111.6</ele>
        <time>2019-01-06T17:57:50Z</time>
      </trkpt>
      <trkpt lat="36.762295406446" lon="-3.858972110012">
        <ele>112.4</ele>
        <time>2019-01-06T17:57:56Z</time>
      </trkpt>
      <trkpt lat="36.76226238176" lon="-3.858795838655">
        <ele>112.2</ele>
        <time>2019-01-06T17:58:02Z</time>
      </trkpt>
      <trkpt lat="36.762246372331" lon="-3.858765831453">
        <ele>110.2</ele>
        <time>2019-01-06T17:58:04Z</time>
      </trkpt>
      <trkpt lat="36.762255257145" lon="-3.858817296319">
        <ele>110.2</ele>
        <time>2019-01-06T17:58:10Z</time>
      </trkpt>
      <trkpt lat="36.762267243262" lon="-3.858865576063">
        <ele>110.2</ele>
        <time>2019-01-06T17:58:12Z</time>
      </trkpt>
      <trkpt lat="36.762294819713" lon="-3.859014773883">
        <ele>110.2</ele>
        <time>2019-01-06T17:58:18Z</time>
      </trkpt>
      <trkpt lat="36.762290125849" lon="-3.85921367637">
        <ele>109.6</ele>
        <time>2019-01-06T17:58:24Z</time>
      </trkpt>
      <trkpt lat="36.762285264347" lon="-3.859291376583">
        <ele>109.2</ele>
        <time>2019-01-06T17:58:26Z</time>
      </trkpt>
      <trkpt lat="36.762282833596" lon="-3.859375698497">
        <ele>110.4</ele>
        <time>2019-01-06T17:58:28Z</time>
      </trkpt>
      <trkpt lat="36.7622757928" lon="-3.8594626188">
        <ele>109.4</ele>
        <time>2019-01-06T17:58:30Z</time>
      </trkpt>
      <trkpt lat="36.762264225778" lon="-3.859739389138">
        <ele>109.4</ele>
        <time>2019-01-06T17:58:36Z</time>
      </trkpt>
      <trkpt lat="36.762246372331" lon="-3.860047340144">
        <ele>108.6</ele>
        <time>2019-01-06T17:58:42Z</time>
      </trkpt>
      <trkpt lat="36.762236481689" lon="-3.860155885749">
        <ele>108.2</ele>
        <time>2019-01-06T17:58:44Z</time>
      </trkpt>
      <trkpt lat="36.762216951862" lon="-3.860448414059">
        <ele>107.2</ele>
        <time>2019-01-06T17:58:49Z</time>
      </trkpt>
      <trkpt lat="36.762198763139" lon="-3.860643460872">
        <ele>104</ele>
        <time>2019-01-06T17:58:52Z</time>
      </trkpt>
      <trkpt lat="36.762171605783" lon="-3.861058364922">
        <ele>102.8</ele>
        <time>2019-01-06T17:58:58Z</time>
      </trkpt>
      <trkpt lat="36.762168755937" lon="-3.861349803585">
        <ele>102.8</ele>
        <time>2019-01-06T17:59:04Z</time>
      </trkpt>
      <trkpt lat="36.762168253023" lon="-3.86144661453">
        <ele>104.2</ele>
        <time>2019-01-06T17:59:07Z</time>
      </trkpt>
      <trkpt lat="36.762165486996" lon="-3.861484500718">
        <ele>105.2</ele>
        <time>2019-01-06T17:59:13Z</time>
      </trkpt>
      <trkpt lat="36.762171521964" lon="-3.861363214625">
        <ele>105.2</ele>
        <time>2019-01-06T17:59:16Z</time>
      </trkpt>
      <trkpt lat="36.762179820045" lon="-3.861151320193">
        <ele>102.6</ele>
        <time>2019-01-06T17:59:20Z</time>
      </trkpt>
      <trkpt lat="36.762175964371" lon="-3.860850158526">
        <ele>103</ele>
        <time>2019-01-06T17:59:26Z</time>
      </trkpt>
      <trkpt lat="36.762188537221" lon="-3.860768267363">
        <ele>103.8</ele>
        <time>2019-01-06T17:59:28Z</time>
      </trkpt>
      <trkpt lat="36.762207647953" lon="-3.860553606904">
        <ele>104</ele>
        <time>2019-01-06T17:59:34Z</time>
      </trkpt>
      <trkpt lat="36.762215359301" lon="-3.860375575348">
        <ele>104.8</ele>
        <time>2019-01-06T17:59:39Z</time>
      </trkpt>
      <trkpt lat="36.762221058993" lon="-3.860334671676">
        <ele>105.2</ele>
        <time>2019-01-06T17:59:40Z</time>
      </trkpt>
      <trkpt lat="36.762223238287" lon="-3.860298880963">
        <ele>105</ele>
        <time>2019-01-06T17:59:41Z</time>
      </trkpt>
      <trkpt lat="36.762241259372" lon="-3.860104756159">
        <ele>105.6</ele>
        <time>2019-01-06T17:59:47Z</time>
      </trkpt>
      <trkpt lat="36.762257268801" lon="-3.860072485844">
        <ele>106.6</ele>
        <time>2019-01-06T17:59:48Z</time>
      </trkpt>
      <trkpt lat="36.762275876619" lon="-3.860018171132">
        <ele>106</ele>
        <time>2019-01-06T17:59:50Z</time>
      </trkpt>
      <trkpt lat="36.762261711208" lon="-3.859816754075">
        <ele>106.2</ele>
        <time>2019-01-06T17:59:56Z</time>
      </trkpt>
      <trkpt lat="36.762279397017" lon="-3.859641572365">
        <ele>106.2</ele>
        <time>2019-01-06T18:00:02Z</time>
      </trkpt>
      <trkpt lat="36.762281408673" lon="-3.859466055379">
        <ele>106.6</ele>
        <time>2019-01-06T18:00:08Z</time>
      </trkpt>
      <trkpt lat="36.76228501289" lon="-3.85929917175">
        <ele>107.8</ele>
        <time>2019-01-06T18:00:14Z</time>
      </trkpt>
      <trkpt lat="36.762297669559" lon="-3.859127258981">
        <ele>108.6</ele>
        <time>2019-01-06T18:00:20Z</time>
      </trkpt>
      <trkpt lat="36.762311583513" lon="-3.859095659218">
        <ele>108.8</ele>
        <time>2019-01-06T18:00:21Z</time>
      </trkpt>
      <trkpt lat="36.762322647621" lon="-3.859070429699">
        <ele>108.8</ele>
        <time>2019-01-06T18:00:22Z</time>
      </trkpt>
      <trkpt lat="36.762323988725" lon="-3.859048972035">
        <ele>109</ele>
        <time>2019-01-06T18:00:23Z</time>
      </trkpt>
      <trkpt lat="36.762302950156" lon="-3.858874796153">
        <ele>109.4</ele>
        <time>2019-01-06T18:00:29Z</time>
      </trkpt>
      <trkpt lat="36.762287778917" lon="-3.858795251922">
        <ele>110</ele>
        <time>2019-01-06T18:00:32Z</time>
      </trkpt>
      <trkpt lat="36.762246791426" lon="-3.858807740953">
        <ele>110.6</ele>
        <time>2019-01-06T18:00:38Z</time>
      </trkpt>
      <trkpt lat="36.762254335136" lon="-3.858839675992">
        <ele>110.2</ele>
        <time>2019-01-06T18:00:39Z</time>
      </trkpt>
      <trkpt lat="36.762301860509" lon="-3.859024748344">
        <ele>110.2</ele>
        <time>2019-01-06T18:00:45Z</time>
      </trkpt>
      <trkpt lat="36.762292472781" lon="-3.859247120151">
        <ele>110.2</ele>
        <time>2019-01-06T18:00:51Z</time>
      </trkpt>
      <trkpt lat="36.762265483063" lon="-3.859533110579">
        <ele>109.2</ele>
        <time>2019-01-06T18:00:57Z</time>
      </trkpt>
      <trkpt lat="36.762265566882" lon="-3.859586922377">
        <ele>108.8</ele>
        <time>2019-01-06T18:00:58Z</time>
      </trkpt>
      <trkpt lat="36.762253664584" lon="-3.859826644717">
        <ele>107.4</ele>
        <time>2019-01-06T18:01:02Z</time>
      </trkpt>
      <trkpt lat="36.76224980891" lon="-3.859890263338">
        <ele>106.2</ele>
        <time>2019-01-06T18:01:03Z</time>
      </trkpt>
      <trkpt lat="36.762225752857" lon="-3.860156472482">
        <ele>105</ele>
        <time>2019-01-06T18:01:07Z</time>
      </trkpt>
      <trkpt lat="36.76219867932" lon="-3.860598785345">
        <ele>104</ele>
        <time>2019-01-06T18:01:13Z</time>
      </trkpt>
      <trkpt lat="36.762193231085" lon="-3.860676904653">
        <ele>103.6</ele>
        <time>2019-01-06T18:01:14Z</time>
      </trkpt>
      <trkpt lat="36.762170683774" lon="-3.860914112423">
        <ele>102.6</ele>
        <time>2019-01-06T18:01:17Z</time>
      </trkpt>
      <trkpt lat="36.762146962997" lon="-3.86131250413">
        <ele>105.4</ele>
        <time>2019-01-06T18:01:23Z</time>
      </trkpt>
      <trkpt lat="36.762150651033" lon="-3.861527332227">
        <ele>106.2</ele>
        <time>2019-01-06T18:01:29Z</time>
      </trkpt>
      <trkpt lat="36.762186441746" lon="-3.861581144025">
        <ele>106.4</ele>
        <time>2019-01-06T18:01:35Z</time>
      </trkpt>
      <trkpt lat="36.762186357927" lon="-3.861574606143">
        <ele>106.6</ele>
        <time>2019-01-06T18:01:36Z</time>
      </trkpt>
      <trkpt lat="36.762165738453" lon="-3.861465138529">
        <ele>106.8</ele>
        <time>2019-01-06T18:01:40Z</time>
      </trkpt>
      <trkpt lat="36.762160206399" lon="-3.861228433673">
        <ele>105.6</ele>
        <time>2019-01-06T18:01:44Z</time>
      </trkpt>
      <trkpt lat="36.762164816444" lon="-3.861097759852">
        <ele>104</ele>
        <time>2019-01-06T18:01:46Z</time>
      </trkpt>
      <trkpt lat="36.762175377638" lon="-3.860980161795">
        <ele>103</ele>
        <time>2019-01-06T18:01:48Z</time>
      </trkpt>
      <trkpt lat="36.762180993511" lon="-3.860732309012">
        <ele>103.8</ele>
        <time>2019-01-06T18:01:54Z</time>
      </trkpt>
      <trkpt lat="36.762181664063" lon="-3.860696518299">
        <ele>104</ele>
        <time>2019-01-06T18:01:55Z</time>
      </trkpt>
      <trkpt lat="36.762193817818" lon="-3.860479762365">
        <ele>104.4</ele>
        <time>2019-01-06T18:02:01Z</time>
      </trkpt>
      <trkpt lat="36.762222903011" lon="-3.860290666701">
        <ele>105</ele>
        <time>2019-01-06T18:02:07Z</time>
      </trkpt>
      <trkpt lat="36.762225082305" lon="-3.860257893472">
        <ele>105</ele>
        <time>2019-01-06T18:02:08Z</time>
      </trkpt>
      <trkpt lat="36.762244025399" lon="-3.860118670113">
        <ele>106.2</ele>
        <time>2019-01-06T18:02:12Z</time>
      </trkpt>
      <trkpt lat="36.762255340964" lon="-3.859935777055">
        <ele>106.2</ele>
        <time>2019-01-06T18:02:18Z</time>
      </trkpt>
      <trkpt lat="36.762270847479" lon="-3.859746346115">
        <ele>106.2</ele>
        <time>2019-01-06T18:02:24Z</time>
      </trkpt>
      <trkpt lat="36.762300016491" lon="-3.859529841638">
        <ele>107.4</ele>
        <time>2019-01-06T18:02:30Z</time>
      </trkpt>
      <trkpt lat="36.762306554373" lon="-3.859402855853">
        <ele>109.4</ele>
        <time>2019-01-06T18:02:34Z</time>
      </trkpt>
      <trkpt lat="36.762300016491" lon="-3.859287353271">
        <ele>110.4</ele>
        <time>2019-01-06T18:02:38Z</time>
      </trkpt>
      <trkpt lat="36.762301692871" lon="-3.859144860971">
        <ele>111</ele>
        <time>2019-01-06T18:02:43Z</time>
      </trkpt>
      <trkpt lat="36.762297166645" lon="-3.858974708401">
        <ele>110.2</ele>
        <time>2019-01-06T18:02:49Z</time>
      </trkpt>
      <trkpt lat="36.762296915188" lon="-3.858910335409">
        <ele>110.6</ele>
        <time>2019-01-06T18:02:51Z</time>
      </trkpt>
      <trkpt lat="36.762297082826" lon="-3.858815619939">
        <ele>109.2</ele>
        <time>2019-01-06T18:02:54Z</time>
      </trkpt>
      <trkpt lat="36.762277217723" lon="-3.858746050169">
        <ele>110.2</ele>
        <time>2019-01-06T18:02:57Z</time>
      </trkpt>
      <trkpt lat="36.76225986719" lon="-3.858746301626">
        <ele>109.8</ele>
        <time>2019-01-06T18:03:00Z</time>
      </trkpt>
      <trkpt lat="36.762263555226" lon="-3.858821068174">
        <ele>109.6</ele>
        <time>2019-01-06T18:03:03Z</time>
      </trkpt>
      <trkpt lat="36.762278139732" lon="-3.858983928491">
        <ele>109.2</ele>
        <time>2019-01-06T18:03:08Z</time>
      </trkpt>
      <trkpt lat="36.762279732293" lon="-3.859019132471">
        <ele>110.2</ele>
        <time>2019-01-06T18:03:09Z</time>
      </trkpt>
      <trkpt lat="36.762283085053" lon="-3.859250472911">
        <ele>110.6</ele>
        <time>2019-01-06T18:03:15Z</time>
      </trkpt>
      <trkpt lat="36.76226573452" lon="-3.859544007049">
        <ele>108.8</ele>
        <time>2019-01-06T18:03:21Z</time>
      </trkpt>
      <trkpt lat="36.762260202466" lon="-3.859718602026">
        <ele>109.4</ele>
        <time>2019-01-06T18:03:24Z</time>
      </trkpt>
      <trkpt lat="36.762235811137" lon="-3.860050106171">
        <ele>107.6</ele>
        <time>2019-01-06T18:03:29Z</time>
      </trkpt>
      <trkpt lat="36.762207228858" lon="-3.860496274708">
        <ele>106.4</ele>
        <time>2019-01-06T18:03:35Z</time>
      </trkpt>
      <trkpt lat="36.762194153094" lon="-3.860642119768">
        <ele>107.6</ele>
        <time>2019-01-06T18:03:37Z</time>
      </trkpt>
      <trkpt lat="36.762182083158" lon="-3.860874633674">
        <ele>106</ele>
        <time>2019-01-06T18:03:40Z</time>
      </trkpt>
      <trkpt lat="36.762156434544" lon="-3.861272019553">
        <ele>105.2</ele>
        <time>2019-01-06T18:03:46Z</time>
      </trkpt>
      <trkpt lat="36.762164062073" lon="-3.861452733317">
        <ele>107.4</ele>
        <time>2019-01-06T18:03:51Z</time>
      </trkpt>
      <trkpt lat="36.762170516136" lon="-3.86151115516">
        <ele>108.4</ele>
        <time>2019-01-06T18:03:53Z</time>
      </trkpt>
      <trkpt lat="36.762187363755" lon="-3.861588017183">
        <ele>109.8</ele>
        <time>2019-01-06T18:03:56Z</time>
      </trkpt>
      <trkpt lat="36.762197086759" lon="-3.861630764873">
        <ele>110.6</ele>
        <time>2019-01-06T18:03:58Z</time>
      </trkpt>
      <trkpt lat="36.762191219429" lon="-3.861663370464">
        <ele>110.8</ele>
        <time>2019-01-06T18:04:00Z</time>
      </trkpt>
      <trkpt lat="36.762196835302" lon="-3.861624646086">
        <ele>111.2</ele>
        <time>2019-01-06T18:04:05Z</time>
      </trkpt>
      <trkpt lat="36.762180574416" lon="-3.861510065513">
        <ele>111.2</ele>
        <time>2019-01-06T18:04:08Z</time>
      </trkpt>
      <trkpt lat="36.762177054018" lon="-3.861452565679">
        <ele>111.2</ele>
        <time>2019-01-06T18:04:09Z</time>
      </trkpt>
      <trkpt lat="36.762172863068" lon="-3.861165401785">
        <ele>109.6</ele>
        <time>2019-01-06T18:04:13Z</time>
      </trkpt>
      <trkpt lat="36.762176299647" lon="-3.861094323273">
        <ele>108.4</ele>
        <time>2019-01-06T18:04:14Z</time>
      </trkpt>
      <trkpt lat="36.762181496425" lon="-3.861026346064">
        <ele>107.2</ele>
        <time>2019-01-06T18:04:15Z</time>
      </trkpt>
      <trkpt lat="36.762187112298" lon="-3.860902545401">
        <ele>105.8</ele>
        <time>2019-01-06T18:04:17Z</time>
      </trkpt>
      <trkpt lat="36.762178395122" lon="-3.860741612921">
        <ele>103.8</ele>
        <time>2019-01-06T18:04:20Z</time>
      </trkpt>
      <trkpt lat="36.762187112298" lon="-3.860511026852">
        <ele>104.8</ele>
        <time>2019-01-06T18:04:26Z</time>
      </trkpt>
      <trkpt lat="36.762194320732" lon="-3.860478756537">
        <ele>104.8</ele>
        <time>2019-01-06T18:04:27Z</time>
      </trkpt>
      <trkpt lat="36.762220556079" lon="-3.860275327824">
        <ele>105</ele>
        <time>2019-01-06T18:04:33Z</time>
      </trkpt>
      <trkpt lat="36.762227261599" lon="-3.860103582693">
        <ele>106</ele>
        <time>2019-01-06T18:04:38Z</time>
      </trkpt>
      <trkpt lat="36.762258693724" lon="-3.859771659453">
        <ele>106.2</ele>
        <time>2019-01-06T18:04:48Z</time>
      </trkpt>
      <trkpt lat="36.762268752004" lon="-3.859567141093">
        <ele>106.2</ele>
        <time>2019-01-06T18:04:54Z</time>
      </trkpt>
      <trkpt lat="36.762282917415" lon="-3.859468569949">
        <ele>107.2</ele>
        <time>2019-01-06T18:04:57Z</time>
      </trkpt>
      <trkpt lat="36.762286018718" lon="-3.859266566159">
        <ele>108</ele>
        <time>2019-01-06T18:05:03Z</time>
      </trkpt>
      <trkpt lat="36.762300770862" lon="-3.859081074712">
        <ele>108.2</ele>
        <time>2019-01-06T18:05:09Z</time>
      </trkpt>
      <trkpt lat="36.762301106138" lon="-3.859043272343">
        <ele>108.4</ele>
        <time>2019-01-06T18:05:10Z</time>
      </trkpt>
      <trkpt lat="36.762313259893" lon="-3.858961129723">
        <ele>110.2</ele>
        <time>2019-01-06T18:05:13Z</time>
      </trkpt>
      <trkpt lat="36.762312086427" lon="-3.858873203592">
        <ele>110.4</ele>
        <time>2019-01-06T18:05:16Z</time>
      </trkpt>
      <trkpt lat="36.762293646247" lon="-3.8588172125">
        <ele>109.6</ele>
        <time>2019-01-06T18:05:18Z</time>
      </trkpt>
      <trkpt lat="36.76228920384" lon="-3.858767256376">
        <ele>110</ele>
        <time>2019-01-06T18:05:20Z</time>
      </trkpt>
      <trkpt lat="36.762256095335" lon="-3.858754515888">
        <ele>110</ele>
        <time>2019-01-06T18:05:26Z</time>
      </trkpt>
      <trkpt lat="36.762254754231" lon="-3.858775889733">
        <ele>110</ele>
        <time>2019-01-06T18:05:27Z</time>
      </trkpt>
      <trkpt lat="36.762287192184" lon="-3.858946629036">
        <ele>109.6</ele>
        <time>2019-01-06T18:05:33Z</time>
      </trkpt>
      <trkpt lat="36.762287108365" lon="-3.859113009751">
        <ele>109.6</ele>
        <time>2019-01-06T18:05:39Z</time>
      </trkpt>
      <trkpt lat="36.762276211895" lon="-3.859343428182">
        <ele>111</ele>
        <time>2019-01-06T18:05:45Z</time>
      </trkpt>
      <trkpt lat="36.762260956837" lon="-3.859671160472">
        <ele>109</ele>
        <time>2019-01-06T18:05:51Z</time>
      </trkpt>
      <trkpt lat="36.762236481689" lon="-3.860084723418">
        <ele>108</ele>
        <time>2019-01-06T18:05:57Z</time>
      </trkpt>
      <trkpt lat="36.762230279083" lon="-3.860157562129">
        <ele>107.8</ele>
        <time>2019-01-06T18:05:58Z</time>
      </trkpt>
      <trkpt lat="36.762198427863" lon="-3.860595097309">
        <ele>107</ele>
        <time>2019-01-06T18:06:04Z</time>
      </trkpt>
      <trkpt lat="36.762194236913" lon="-3.86066709783">
        <ele>106.6</ele>
        <time>2019-01-06T18:06:05Z</time>
      </trkpt>
      <trkpt lat="36.762186525565" lon="-3.860813445804">
        <ele>105</ele>
        <time>2019-01-06T18:06:07Z</time>
      </trkpt>
      <trkpt lat="36.762184765366" lon="-3.860886619791">
        <ele>103.8</ele>
        <time>2019-01-06T18:06:08Z</time>
      </trkpt>
      <trkpt lat="36.762169845584" lon="-3.861213681529">
        <ele>102.6</ele>
        <time>2019-01-06T18:06:13Z</time>
      </trkpt>
      <trkpt lat="36.762159116752" lon="-3.861388527963">
        <ele>103.8</ele>
        <time>2019-01-06T18:06:17Z</time>
      </trkpt>
      <trkpt lat="36.762176467285" lon="-3.861565721329">
        <ele>104.8</ele>
        <time>2019-01-06T18:06:23Z</time>
      </trkpt>
      <trkpt lat="36.762180322959" lon="-3.861588352459">
        <ele>105.4</ele>
        <time>2019-01-06T18:06:24Z</time>
      </trkpt>
      <trkpt lat="36.762174707086" lon="-3.861696562788">
        <ele>106.2</ele>
        <time>2019-01-06T18:06:30Z</time>
      </trkpt>
      <trkpt lat="36.762176215828" lon="-3.861695473141">
        <ele>106.4</ele>
        <time>2019-01-06T18:06:31Z</time>
      </trkpt>
      <trkpt lat="36.762196751483" lon="-3.861664879206">
        <ele>106.4</ele>
        <time>2019-01-06T18:06:37Z</time>
      </trkpt>
      <trkpt lat="36.762186274108" lon="-3.861542252009">
        <ele>106.4</ele>
        <time>2019-01-06T18:06:40Z</time>
      </trkpt>
      <trkpt lat="36.76218191552" lon="-3.861348965395">
        <ele>105.4</ele>
        <time>2019-01-06T18:06:43Z</time>
      </trkpt>
      <trkpt lat="36.762190884153" lon="-3.861125923036">
        <ele>104.2</ele>
        <time>2019-01-06T18:06:46Z</time>
      </trkpt>
      <trkpt lat="36.762195410379" lon="-3.860986783496">
        <ele>102</ele>
        <time>2019-01-06T18:06:48Z</time>
      </trkpt>
      <trkpt lat="36.762197673492" lon="-3.860851080535">
        <ele>100.8</ele>
        <time>2019-01-06T18:06:50Z</time>
      </trkpt>
      <trkpt lat="36.762196919121" lon="-3.860632815859">
        <ele>102</ele>
        <time>2019-01-06T18:06:55Z</time>
      </trkpt>
      <trkpt lat="36.762199433691" lon="-3.86055394218">
        <ele>103.4</ele>
        <time>2019-01-06T18:06:57Z</time>
      </trkpt>
      <trkpt lat="36.762213682921" lon="-3.860405414912">
        <ele>105.2</ele>
        <time>2019-01-06T18:07:01Z</time>
      </trkpt>
      <trkpt lat="36.762236733146" lon="-3.860226880442">
        <ele>105</ele>
        <time>2019-01-06T18:07:07Z</time>
      </trkpt>
      <trkpt lat="36.762246372331" lon="-3.860015405105">
        <ele>105.8</ele>
        <time>2019-01-06T18:07:13Z</time>
      </trkpt>
      <trkpt lat="36.762252574937" lon="-3.859882132895">
        <ele>106.4</ele>
        <time>2019-01-06T18:07:17Z</time>
      </trkpt>
      <trkpt lat="36.762270176927" lon="-3.859672753033">
        <ele>106</ele>
        <time>2019-01-06T18:07:23Z</time>
      </trkpt>
      <trkpt lat="36.762284509976" lon="-3.859507964879">
        <ele>106</ele>
        <time>2019-01-06T18:07:29Z</time>
      </trkpt>
      <trkpt lat="36.762291802229" lon="-3.859474269641">
        <ele>106</ele>
        <time>2019-01-06T18:07:30Z</time>
      </trkpt>
      <trkpt lat="36.762319127223" lon="-3.859311912238">
        <ele>107</ele>
        <time>2019-01-06T18:07:36Z</time>
      </trkpt>
      <trkpt lat="36.762334801376" lon="-3.859208479592">
        <ele>107.4</ele>
        <time>2019-01-06T18:07:40Z</time>
      </trkpt>
      <trkpt lat="36.762339746697" lon="-3.859084511291">
        <ele>108.4</ele>
        <time>2019-01-06T18:07:45Z</time>
      </trkpt>
      <trkpt lat="36.762306219097" lon="-3.858925087553">
        <ele>109</ele>
        <time>2019-01-06T18:07:51Z</time>
      </trkpt>
      <trkpt lat="36.762275625162" lon="-3.858791396248">
        <ele>109.4</ele>
        <time>2019-01-06T18:07:57Z</time>
      </trkpt>
      <trkpt lat="36.762242851933" lon="-3.858803214727">
        <ele>110.2</ele>
        <time>2019-01-06T18:08:02Z</time>
      </trkpt>
      <trkpt lat="36.762259448095" lon="-3.858875131429">
        <ele>110.2</ele>
        <time>2019-01-06T18:08:05Z</time>
      </trkpt>
      <trkpt lat="36.762289120021" lon="-3.859017707548">
        <ele>109.8</ele>
        <time>2019-01-06T18:08:11Z</time>
      </trkpt>
      <trkpt lat="36.762283923243" lon="-3.859227590324">
        <ele>109.4</ele>
        <time>2019-01-06T18:08:17Z</time>
      </trkpt>
      <trkpt lat="36.762264561054" lon="-3.859534032588">
        <ele>109.6</ele>
        <time>2019-01-06T18:08:23Z</time>
      </trkpt>
      <trkpt lat="36.762236565508" lon="-3.859929574449">
        <ele>107.8</ele>
        <time>2019-01-06T18:08:29Z</time>
      </trkpt>
      <trkpt lat="36.762216448948" lon="-3.860073407853">
        <ele>106.4</ele>
        <time>2019-01-06T18:08:31Z</time>
      </trkpt>
      <trkpt lat="36.762207647953" lon="-3.860147503849">
        <ele>105.8</ele>
        <time>2019-01-06T18:08:32Z</time>
      </trkpt>
      <trkpt lat="36.762198427863" lon="-3.860296953126">
        <ele>105.2</ele>
        <time>2019-01-06T18:08:34Z</time>
      </trkpt>
      <trkpt lat="36.762189878325" lon="-3.860450090439">
        <ele>104</ele>
        <time>2019-01-06T18:08:36Z</time>
      </trkpt>
      <trkpt lat="36.762184178633" lon="-3.860700373973">
        <ele>102.6</ele>
        <time>2019-01-06T18:08:39Z</time>
      </trkpt>
      <trkpt lat="36.762176132009" lon="-3.860784779706">
        <ele>104</ele>
        <time>2019-01-06T18:08:40Z</time>
      </trkpt>
      <trkpt lat="36.762159535847" lon="-3.860950741326">
        <ele>105</ele>
        <time>2019-01-06T18:08:42Z</time>
      </trkpt>
      <trkpt lat="36.762151908318" lon="-3.861108740141">
        <ele>104</ele>
        <time>2019-01-06T18:08:44Z</time>
      </trkpt>
      <trkpt lat="36.762152662689" lon="-3.861410991455">
        <ele>104.8</ele>
        <time>2019-01-06T18:08:50Z</time>
      </trkpt>
      <trkpt lat="36.762160625494" lon="-3.861467485461">
        <ele>105.2</ele>
        <time>2019-01-06T18:08:52Z</time>
      </trkpt>
      <trkpt lat="36.762172360154" lon="-3.861559937818">
        <ele>106.4</ele>
        <time>2019-01-06T18:08:55Z</time>
      </trkpt>
      <trkpt lat="36.762182166977" lon="-3.86167963135">
        <ele>106.8</ele>
        <time>2019-01-06T18:09:01Z</time>
      </trkpt>
      <trkpt lat="36.762171438145" lon="-3.861695137865">
        <ele>106.8</ele>
        <time>2019-01-06T18:09:02Z</time>
      </trkpt>
      <trkpt lat="36.762150567214" lon="-3.861726905266">
        <ele>107.6</ele>
        <time>2019-01-06T18:09:05Z</time>
      </trkpt>
      <trkpt lat="36.762154590526" lon="-3.861717517538">
        <ele>108</ele>
        <time>2019-01-06T18:09:11Z</time>
      </trkpt>
      <trkpt lat="36.762176132009" lon="-3.861658592781">
        <ele>107.8</ele>
        <time>2019-01-06T18:09:17Z</time>
      </trkpt>
      <trkpt lat="36.762176383466" lon="-3.861571001926">
        <ele>107.8</ele>
        <time>2019-01-06T18:09:19Z</time>
      </trkpt>
      <trkpt lat="36.762170516136" lon="-3.861217201927">
        <ele>106.2</ele>
        <time>2019-01-06T18:09:24Z</time>
      </trkpt>
      <trkpt lat="36.762174623267" lon="-3.86106523808">
        <ele>104.8</ele>
        <time>2019-01-06T18:09:26Z</time>
      </trkpt>
      <trkpt lat="36.762185100642" lon="-3.86092693673">
        <ele>103.4</ele>
        <time>2019-01-06T18:09:28Z</time>
      </trkpt>
      <trkpt lat="36.762193314904" lon="-3.860825851016">
        <ele>102.2</ele>
        <time>2019-01-06T18:09:30Z</time>
      </trkpt>
      <trkpt lat="36.762197589673" lon="-3.860738595437">
        <ele>103.8</ele>
        <time>2019-01-06T18:09:32Z</time>
      </trkpt>
      <trkpt lat="36.762197924949" lon="-3.860659805577">
        <ele>104.8</ele>
        <time>2019-01-06T18:09:34Z</time>
      </trkpt>
      <trkpt lat="36.762210916894" lon="-3.860431063526">
        <ele>104.6</ele>
        <time>2019-01-06T18:09:40Z</time>
      </trkpt>
      <trkpt lat="36.762236146413" lon="-3.860251858504">
        <ele>104.8</ele>
        <time>2019-01-06T18:09:46Z</time>
      </trkpt>
      <trkpt lat="36.76224058882" lon="-3.860092853861">
        <ele>106.2</ele>
        <time>2019-01-06T18:09:51Z</time>
      </trkpt>
      <trkpt lat="36.762265483063" lon="-3.859921695463">
        <ele>106.6</ele>
        <time>2019-01-06T18:09:57Z</time>
      </trkpt>
      <trkpt lat="36.762279480836" lon="-3.859718769664">
        <ele>106.6</ele>
        <time>2019-01-06T18:10:03Z</time>
      </trkpt>
      <trkpt lat="36.762287192184" lon="-3.859555322614">
        <ele>106.4</ele>
        <time>2019-01-06T18:10:09Z</time>
      </trkpt>
      <trkpt lat="36.762306889649" lon="-3.859380811456">
        <ele>107.2</ele>
        <time>2019-01-06T18:10:15Z</time>
      </trkpt>
      <trkpt lat="36.762316361196" lon="-3.85919775076">
        <ele>107.6</ele>
        <time>2019-01-06T18:10:21Z</time>
      </trkpt>
      <trkpt lat="36.762331867711" lon="-3.859085349481">
        <ele>108.2</ele>
        <time>2019-01-06T18:10:25Z</time>
      </trkpt>
      <trkpt lat="36.76233111334" lon="-3.859054923184">
        <ele>108.4</ele>
        <time>2019-01-06T18:10:26Z</time>
      </trkpt>
      <trkpt lat="36.762307224925" lon="-3.858928607951">
        <ele>109.4</ele>
        <time>2019-01-06T18:10:31Z</time>
      </trkpt>
      <trkpt lat="36.762275122248" lon="-3.858786283289">
        <ele>109.6</ele>
        <time>2019-01-06T18:10:37Z</time>
      </trkpt>
      <trkpt lat="36.762249389815" lon="-3.858794329913">
        <ele>110.2</ele>
        <time>2019-01-06T18:10:42Z</time>
      </trkpt>
      <trkpt lat="36.762269841651" lon="-3.858866162796">
        <ele>110</ele>
        <time>2019-01-06T18:10:45Z</time>
      </trkpt>
      <trkpt lat="36.762286102537" lon="-3.859054587908">
        <ele>109.6</ele>
        <time>2019-01-06T18:10:51Z</time>
      </trkpt>
      <trkpt lat="36.762286437813" lon="-3.859296154266">
        <ele>110.6</ele>
        <time>2019-01-06T18:10:57Z</time>
      </trkpt>
      <trkpt lat="36.762264141959" lon="-3.859573176061">
        <ele>109.4</ele>
        <time>2019-01-06T18:11:02Z</time>
      </trkpt>
      <trkpt lat="36.762253329308" lon="-3.859759589517">
        <ele>109.2</ele>
        <time>2019-01-06T18:11:05Z</time>
      </trkpt>
      <trkpt lat="36.762228770341" lon="-3.859884647465">
        <ele>109.2</ele>
        <time>2019-01-06T18:11:07Z</time>
      </trkpt>
      <trkpt lat="36.762230698178" lon="-3.860062259926">
        <ele>109</ele>
        <time>2019-01-06T18:11:10Z</time>
      </trkpt>
      <trkpt lat="36.762213599102" lon="-3.860171559902">
        <ele>108.4</ele>
        <time>2019-01-06T18:11:12Z</time>
      </trkpt>
      <trkpt lat="36.762216700405" lon="-3.860279686412">
        <ele>107.4</ele>
        <time>2019-01-06T18:11:14Z</time>
      </trkpt>
      <trkpt lat="36.762204798107" lon="-3.860435338295">
        <ele>106.8</ele>
        <time>2019-01-06T18:11:17Z</time>
      </trkpt>
      <trkpt lat="36.762201529166" lon="-3.86053634019">
        <ele>106.2</ele>
        <time>2019-01-06T18:11:19Z</time>
      </trkpt>
      <trkpt lat="36.762189626868" lon="-3.860637677361">
        <ele>106.4</ele>
        <time>2019-01-06T18:11:21Z</time>
      </trkpt>
      <trkpt lat="36.762178814217" lon="-3.860827275939">
        <ele>103.8</ele>
        <time>2019-01-06T18:11:25Z</time>
      </trkpt>
      <trkpt lat="36.762166157548" lon="-3.861091976341">
        <ele>104.2</ele>
        <time>2019-01-06T18:11:31Z</time>
      </trkpt>
      <trkpt lat="36.762167582471" lon="-3.861209490579">
        <ele>103.8</ele>
        <time>2019-01-06T18:11:34Z</time>
      </trkpt>
      <trkpt lat="36.762156686001" lon="-3.861396239311">
        <ele>104.2</ele>
        <time>2019-01-06T18:11:38Z</time>
      </trkpt>
      <trkpt lat="36.762167331014" lon="-3.861460360846">
        <ele>104.2</ele>
        <time>2019-01-06T18:11:40Z</time>
      </trkpt>
      <trkpt lat="36.762157943286" lon="-3.861531858453">
        <ele>105</ele>
        <time>2019-01-06T18:11:42Z</time>
      </trkpt>
      <trkpt lat="36.762163810616" lon="-3.861562033293">
        <ele>105.6</ele>
        <time>2019-01-06T18:11:43Z</time>
      </trkpt>
      <trkpt lat="36.762180909692" lon="-3.861632944167">
        <ele>105.6</ele>
        <time>2019-01-06T18:11:46Z</time>
      </trkpt>
      <trkpt lat="36.762159787304" lon="-3.861710979656">
        <ele>108</ele>
        <time>2019-01-06T18:11:50Z</time>
      </trkpt>
      <trkpt lat="36.76216179896" lon="-3.861704693231">
        <ele>107.8</ele>
        <time>2019-01-06T18:11:56Z</time>
      </trkpt>
      <trkpt lat="36.76216179896" lon="-3.861704693231">
        <ele>107.6</ele>
        <time>2019-01-06T18:12:02Z</time>
      </trkpt>
      <trkpt lat="36.76216179896" lon="-3.861704693231">
        <ele>107.6</ele>
        <time>2019-01-06T18:12:08Z</time>
      </trkpt>
      <trkpt lat="36.762185771194" lon="-3.861590699391">
        <ele>107.6</ele>
        <time>2019-01-06T18:12:12Z</time>
      </trkpt>
      <trkpt lat="36.762184597728" lon="-3.861482237605">
        <ele>107.4</ele>
        <time>2019-01-06T18:12:14Z</time>
      </trkpt>
      <trkpt lat="36.762186190289" lon="-3.861268750612">
        <ele>106.8</ele>
        <time>2019-01-06T18:12:17Z</time>
      </trkpt>
      <trkpt lat="36.762195913293" lon="-3.861042942226">
        <ele>105.4</ele>
        <time>2019-01-06T18:12:20Z</time>
      </trkpt>
      <trkpt lat="36.76220957579" lon="-3.860849404155">
        <ele>104.2</ele>
        <time>2019-01-06T18:12:23Z</time>
      </trkpt>
      <trkpt lat="36.762224495572" lon="-3.860601383734">
        <ele>104</ele>
        <time>2019-01-06T18:12:29Z</time>
      </trkpt>
      <trkpt lat="36.762255760059" lon="-3.86038295142">
        <ele>104.8</ele>
        <time>2019-01-06T18:12:35Z</time>
      </trkpt>
      <trkpt lat="36.762260370104" lon="-3.860348837087">
        <ele>105.4</ele>
        <time>2019-01-06T18:12:36Z</time>
      </trkpt>
      <trkpt lat="36.762267075624" lon="-3.860146833297">
        <ele>105.8</ele>
        <time>2019-01-06T18:12:42Z</time>
      </trkpt>
      <trkpt lat="36.762279816112" lon="-3.860040634624">
        <ele>106.6</ele>
        <time>2019-01-06T18:12:45Z</time>
      </trkpt>
      <trkpt lat="36.762281995406" lon="-3.859913229744">
        <ele>107.6</ele>
        <time>2019-01-06T18:12:49Z</time>
      </trkpt>
      <trkpt lat="36.76226908728" lon="-3.859785992502">
        <ele>106.2</ele>
        <time>2019-01-06T18:12:54Z</time>
      </trkpt>
      <trkpt lat="36.762272020945" lon="-3.859639644528">
        <ele>107.6</ele>
        <time>2019-01-06T18:12:58Z</time>
      </trkpt>
      <trkpt lat="36.76229423298" lon="-3.859488435052">
        <ele>107.8</ele>
        <time>2019-01-06T18:13:04Z</time>
      </trkpt>
      <trkpt lat="36.762298507749" lon="-3.859330352418">
        <ele>108.4</ele>
        <time>2019-01-06T18:13:10Z</time>
      </trkpt>
      <trkpt lat="36.762299513577" lon="-3.859301518682">
        <ele>108.6</ele>
        <time>2019-01-06T18:13:11Z</time>
      </trkpt>
      <trkpt lat="36.762299597396" lon="-3.859276372982">
        <ele>107.4</ele>
        <time>2019-01-06T18:13:12Z</time>
      </trkpt>
      <trkpt lat="36.762302447242" lon="-3.859252316929">
        <ele>107</ele>
        <time>2019-01-06T18:13:13Z</time>
      </trkpt>
      <trkpt lat="36.762304626536" lon="-3.859062131618">
        <ele>107</ele>
        <time>2019-01-06T18:13:19Z</time>
      </trkpt>
      <trkpt lat="36.762303620708" lon="-3.859003709775">
        <ele>107.4</ele>
        <time>2019-01-06T18:13:21Z</time>
      </trkpt>
      <trkpt lat="36.762300519405" lon="-3.858888793926">
        <ele>108</ele>
        <time>2019-01-06T18:13:25Z</time>
      </trkpt>
      <trkpt lat="36.762280989578" lon="-3.858836909965">
        <ele>108</ele>
        <time>2019-01-06T18:13:27Z</time>
      </trkpt>
      <trkpt lat="36.762254083679" lon="-3.858785780375">
        <ele>110.2</ele>
        <time>2019-01-06T18:13:33Z</time>
      </trkpt>
      <trkpt lat="36.762274451696" lon="-3.858892817238">
        <ele>110.2</ele>
        <time>2019-01-06T18:13:39Z</time>
      </trkpt>
      <trkpt lat="36.762282749777" lon="-3.859037488832">
        <ele>110.2</ele>
        <time>2019-01-06T18:13:45Z</time>
      </trkpt>
      <trkpt lat="36.762287024546" lon="-3.859223147917">
        <ele>110</ele>
        <time>2019-01-06T18:13:51Z</time>
      </trkpt>
      <trkpt lat="36.762275373705" lon="-3.859477622401">
        <ele>109.2</ele>
        <time>2019-01-06T18:13:57Z</time>
      </trkpt>
      <trkpt lat="36.76226657271" lon="-3.859641237089">
        <ele>107.8</ele>
        <time>2019-01-06T18:14:00Z</time>
      </trkpt>
      <trkpt lat="36.762254502774" lon="-3.859892274994">
        <ele>106.2</ele>
        <time>2019-01-06T18:14:04Z</time>
      </trkpt>
      <trkpt lat="36.762236649327" lon="-3.860174493567">
        <ele>105.2</ele>
        <time>2019-01-06T18:14:08Z</time>
      </trkpt>
      <trkpt lat="36.762195661836" lon="-3.86064279032">
        <ele>104.6</ele>
        <time>2019-01-06T18:14:14Z</time>
      </trkpt>
      <trkpt lat="36.762170516136" lon="-3.861107482856">
        <ele>104.6</ele>
        <time>2019-01-06T18:14:20Z</time>
      </trkpt>
      <trkpt lat="36.762158194743" lon="-3.861276713417">
        <ele>104.6</ele>
        <time>2019-01-06T18:14:23Z</time>
      </trkpt>
      <trkpt lat="36.762123745134" lon="-3.861438987001">
        <ele>104.6</ele>
        <time>2019-01-06T18:14:27Z</time>
      </trkpt>
      <trkpt lat="36.762137910545" lon="-3.861508556771">
        <ele>105</ele>
        <time>2019-01-06T18:14:30Z</time>
      </trkpt>
      <trkpt lat="36.762140760391" lon="-3.861596901997">
        <ele>105.6</ele>
        <time>2019-01-06T18:14:33Z</time>
      </trkpt>
      <trkpt lat="36.762158781476" lon="-3.861666807043">
        <ele>106.4</ele>
        <time>2019-01-06T18:14:36Z</time>
      </trkpt>
      <trkpt lat="36.762167414833" lon="-3.861686588327">
        <ele>107.6</ele>
        <time>2019-01-06T18:14:41Z</time>
      </trkpt>
      <trkpt lat="36.762181664063" lon="-3.861583993871">
        <ele>107.6</ele>
        <time>2019-01-06T18:14:47Z</time>
      </trkpt>
      <trkpt lat="36.762179652407" lon="-3.861537558145">
        <ele>107.6</ele>
        <time>2019-01-06T18:14:48Z</time>
      </trkpt>
      <trkpt lat="36.762179652407" lon="-3.861197839738">
        <ele>106.4</ele>
        <time>2019-01-06T18:14:53Z</time>
      </trkpt>
      <trkpt lat="36.762190884153" lon="-3.86105182704">
        <ele>105.4</ele>
        <time>2019-01-06T18:14:55Z</time>
      </trkpt>
      <trkpt lat="36.762207228858" lon="-3.860869017801">
        <ele>104.2</ele>
        <time>2019-01-06T18:14:58Z</time>
      </trkpt>
      <trkpt lat="36.76223639787" lon="-3.86066290688">
        <ele>103.4</ele>
        <time>2019-01-06T18:15:04Z</time>
      </trkpt>
      <trkpt lat="36.762238996259" lon="-3.860455622493">
        <ele>105.2</ele>
        <time>2019-01-06T18:15:10Z</time>
      </trkpt>
      <trkpt lat="36.762248216349" lon="-3.860247835192">
        <ele>105.4</ele>
        <time>2019-01-06T18:15:16Z</time>
      </trkpt>
      <trkpt lat="36.762257855534" lon="-3.860081957391">
        <ele>106.4</ele>
        <time>2019-01-06T18:15:21Z</time>
      </trkpt>
      <trkpt lat="36.762256262973" lon="-3.859881043248">
        <ele>106.2</ele>
        <time>2019-01-06T18:15:27Z</time>
      </trkpt>
      <trkpt lat="36.76226070538" lon="-3.859706867366">
        <ele>106.8</ele>
        <time>2019-01-06T18:15:33Z</time>
      </trkpt>
      <trkpt lat="36.762274451696" lon="-3.859535289873">
        <ele>107.6</ele>
        <time>2019-01-06T18:15:38Z</time>
      </trkpt>
      <trkpt lat="36.762307560201" lon="-3.859369328253">
        <ele>108.6</ele>
        <time>2019-01-06T18:15:44Z</time>
      </trkpt>
      <trkpt lat="36.76231015859" lon="-3.85934611039">
        <ele>108.6</ele>
        <time>2019-01-06T18:15:45Z</time>
      </trkpt>
      <trkpt lat="36.762326419476" lon="-3.859239073527">
        <ele>107.6</ele>
        <time>2019-01-06T18:15:49Z</time>
      </trkpt>
      <trkpt lat="36.762326838571" lon="-3.85914829755">
        <ele>108.2</ele>
        <time>2019-01-06T18:15:55Z</time>
      </trkpt>
      <trkpt lat="36.762310493866" lon="-3.859196996389">
        <ele>108.4</ele>
        <time>2019-01-06T18:16:00Z</time>
      </trkpt>
      <trkpt lat="36.76228836565" lon="-3.859403861681">
        <ele>108</ele>
        <time>2019-01-06T18:16:06Z</time>
      </trkpt>
      <trkpt lat="36.762270009289" lon="-3.859717596198">
        <ele>107.2</ele>
        <time>2019-01-06T18:16:12Z</time>
      </trkpt>
      <trkpt lat="36.762255005688" lon="-3.859902417093">
        <ele>106.4</ele>
        <time>2019-01-06T18:16:15Z</time>
      </trkpt>
      <trkpt lat="36.762228937979" lon="-3.860165273477">
        <ele>105.4</ele>
        <time>2019-01-06T18:16:19Z</time>
      </trkpt>
      <trkpt lat="36.762203373184" lon="-3.860532903611">
        <ele>104.4</ele>
        <time>2019-01-06T18:16:25Z</time>
      </trkpt>
      <trkpt lat="36.762198763139" lon="-3.860596354594">
        <ele>104</ele>
        <time>2019-01-06T18:16:26Z</time>
      </trkpt>
      <trkpt lat="36.762177473113" lon="-3.860935821544">
        <ele>102.8</ele>
        <time>2019-01-06T18:16:31Z</time>
      </trkpt>
      <trkpt lat="36.762151908318" lon="-3.861267996241">
        <ele>102</ele>
        <time>2019-01-06T18:16:37Z</time>
      </trkpt>
      <trkpt lat="36.762150231938" lon="-3.861341170228">
        <ele>102.2</ele>
        <time>2019-01-06T18:16:39Z</time>
      </trkpt>
      <trkpt lat="36.762157943286" lon="-3.861407051962">
        <ele>102.6</ele>
        <time>2019-01-06T18:16:41Z</time>
      </trkpt>
      <trkpt lat="36.762153249422" lon="-3.86146086376">
        <ele>104.2</ele>
        <time>2019-01-06T18:16:43Z</time>
      </trkpt>
      <trkpt lat="36.762141933857" lon="-3.861534205385">
        <ele>105.6</ele>
        <time>2019-01-06T18:16:45Z</time>
      </trkpt>
      <trkpt lat="36.762132546129" lon="-3.861592040495">
        <ele>107.2</ele>
        <time>2019-01-06T18:16:47Z</time>
      </trkpt>
      <trkpt lat="36.762155763992" lon="-3.86164275099">
        <ele>107</ele>
        <time>2019-01-06T18:16:50Z</time>
      </trkpt>
      <trkpt lat="36.762149561386" lon="-3.861694048218">
        <ele>108</ele>
        <time>2019-01-06T18:16:55Z</time>
      </trkpt>
      <trkpt lat="36.762182837529" lon="-3.861564715501">
        <ele>107.4</ele>
        <time>2019-01-06T18:17:01Z</time>
      </trkpt>
      <trkpt lat="36.76217940095" lon="-3.861515849024">
        <ele>107.4</ele>
        <time>2019-01-06T18:17:02Z</time>
      </trkpt>
      <trkpt lat="36.762178730398" lon="-3.861249053147">
        <ele>106.8</ele>
        <time>2019-01-06T18:17:06Z</time>
      </trkpt>
      <trkpt lat="36.762194572189" lon="-3.861032800127">
        <ele>105.8</ele>
        <time>2019-01-06T18:17:09Z</time>
      </trkpt>
      <trkpt lat="36.762197589673" lon="-3.860906568713">
        <ele>104.8</ele>
        <time>2019-01-06T18:17:11Z</time>
      </trkpt>
      <trkpt lat="36.76220119389" lon="-3.860853678924">
        <ele>104.4</ele>
        <time>2019-01-06T18:17:12Z</time>
      </trkpt>
      <trkpt lat="36.762218209147" lon="-3.86065201041">
        <ele>104.8</ele>
        <time>2019-01-06T18:17:18Z</time>
      </trkpt>
      <trkpt lat="36.76223304511" lon="-3.860483618039">
        <ele>104</ele>
        <time>2019-01-06T18:17:24Z</time>
      </trkpt>
      <trkpt lat="36.762247964892" lon="-3.860300976438">
        <ele>105.2</ele>
        <time>2019-01-06T18:17:30Z</time>
      </trkpt>
      <trkpt lat="36.762251652928" lon="-3.860254624531">
        <ele>105.4</ele>
        <time>2019-01-06T18:17:32Z</time>
      </trkpt>
      <trkpt lat="36.762250144186" lon="-3.860223443863">
        <ele>105.8</ele>
        <time>2019-01-06T18:17:33Z</time>
      </trkpt>
      <trkpt lat="36.762262633217" lon="-3.860032588">
        <ele>106.2</ele>
        <time>2019-01-06T18:17:39Z</time>
      </trkpt>
      <trkpt lat="36.762277972094" lon="-3.859941644385">
        <ele>107</ele>
        <time>2019-01-06T18:17:42Z</time>
      </trkpt>
      <trkpt lat="36.762274786972" lon="-3.859795547868">
        <ele>106.2</ele>
        <time>2019-01-06T18:17:47Z</time>
      </trkpt>
      <trkpt lat="36.762288952383" lon="-3.859615672294">
        <ele>107.2</ele>
        <time>2019-01-06T18:17:53Z</time>
      </trkpt>
      <trkpt lat="36.762288784745" lon="-3.859592789707">
        <ele>107.2</ele>
        <time>2019-01-06T18:17:54Z</time>
      </trkpt>
      <trkpt lat="36.762309571857" lon="-3.859432192503">
        <ele>107.4</ele>
        <time>2019-01-06T18:18:00Z</time>
      </trkpt>
      <trkpt lat="36.762314433359" lon="-3.859382823112">
        <ele>107.6</ele>
        <time>2019-01-06T18:18:02Z</time>
      </trkpt>
      <trkpt lat="36.762313762807" lon="-3.859342338535">
        <ele>108.6</ele>
        <time>2019-01-06T18:18:04Z</time>
      </trkpt>
      <trkpt lat="36.762323653449" lon="-3.85926229139">
        <ele>107.4</ele>
        <time>2019-01-06T18:18:07Z</time>
      </trkpt>
      <trkpt lat="36.762314098083" lon="-3.859185680824">
        <ele>107.4</ele>
        <time>2019-01-06T18:18:13Z</time>
      </trkpt>
      <trkpt lat="36.762308230753" lon="-3.859234547301">
        <ele>107.4</ele>
        <time>2019-01-06T18:18:16Z</time>
      </trkpt>
      <trkpt lat="36.762280989578" lon="-3.859434874711">
        <ele>107</ele>
        <time>2019-01-06T18:18:22Z</time>
      </trkpt>
      <trkpt lat="36.762263387588" lon="-3.859689600652">
        <ele>106.2</ele>
        <time>2019-01-06T18:18:27Z</time>
      </trkpt>
      <trkpt lat="36.762237152241" lon="-3.860053207474">
        <ele>105.6</ele>
        <time>2019-01-06T18:18:33Z</time>
      </trkpt>
      <trkpt lat="36.762228518884" lon="-3.86018262401">
        <ele>105</ele>
        <time>2019-01-06T18:18:35Z</time>
      </trkpt>
      <trkpt lat="36.762201948261" lon="-3.860575651301">
        <ele>104</ele>
        <time>2019-01-06T18:18:41Z</time>
      </trkpt>
      <trkpt lat="36.762199685148" lon="-3.86064362851">
        <ele>102.6</ele>
        <time>2019-01-06T18:18:42Z</time>
      </trkpt>
      <trkpt lat="36.762190716515" lon="-3.860783857697">
        <ele>101</ele>
        <time>2019-01-06T18:18:44Z</time>
      </trkpt>
      <trkpt lat="36.762171186688" lon="-3.861128605244">
        <ele>99.8</ele>
        <time>2019-01-06T18:18:49Z</time>
      </trkpt>
      <trkpt lat="36.762151824499" lon="-3.861359945684">
        <ele>100.8</ele>
        <time>2019-01-06T18:18:54Z</time>
      </trkpt>
      <trkpt lat="36.762141933857" lon="-3.861435047508">
        <ele>102.4</ele>
        <time>2019-01-06T18:18:56Z</time>
      </trkpt>
      <trkpt lat="36.762150315757" lon="-3.861525991123">
        <ele>103.4</ele>
        <time>2019-01-06T18:18:59Z</time>
      </trkpt>
      <trkpt lat="36.762164062073" lon="-3.861620371317">
        <ele>104.4</ele>
        <time>2019-01-06T18:19:04Z</time>
      </trkpt>
      <trkpt lat="36.762146879178" lon="-3.861693210028">
        <ele>105.6</ele>
        <time>2019-01-06T18:19:10Z</time>
      </trkpt>
      <trkpt lat="36.762148639377" lon="-3.861686085413">
        <ele>107.4</ele>
        <time>2019-01-06T18:19:11Z</time>
      </trkpt>
      <trkpt lat="36.762170013222" lon="-3.861673596382">
        <ele>107.2</ele>
        <time>2019-01-06T18:19:17Z</time>
      </trkpt>
      <trkpt lat="36.762174958543" lon="-3.861653563641">
        <ele>107.2</ele>
        <time>2019-01-06T18:19:23Z</time>
      </trkpt>
      <trkpt lat="36.762176299647" lon="-3.861497911758">
        <ele>107</ele>
        <time>2019-01-06T18:19:27Z</time>
      </trkpt>
      <trkpt lat="36.762172779249" lon="-3.861310911569">
        <ele>106.2</ele>
        <time>2019-01-06T18:19:30Z</time>
      </trkpt>
      <trkpt lat="36.762184933004" lon="-3.861096586386">
        <ele>105</ele>
        <time>2019-01-06T18:19:33Z</time>
      </trkpt>
      <trkpt lat="36.762194236913" lon="-3.86090262922">
        <ele>103.8</ele>
        <time>2019-01-06T18:19:36Z</time>
      </trkpt>
      <trkpt lat="36.762208150867" lon="-3.86066039231">
        <ele>104.8</ele>
        <time>2019-01-06T18:19:42Z</time>
      </trkpt>
      <trkpt lat="36.76221376674" lon="-3.860629211642">
        <ele>105</ele>
        <time>2019-01-06T18:19:43Z</time>
      </trkpt>
      <trkpt lat="36.762219382613" lon="-3.860602641019">
        <ele>103.8</ele>
        <time>2019-01-06T18:19:44Z</time>
      </trkpt>
      <trkpt lat="36.762238325707" lon="-3.860398625573">
        <ele>104.4</ele>
        <time>2019-01-06T18:19:50Z</time>
      </trkpt>
      <trkpt lat="36.762245450322" lon="-3.860360487928">
        <ele>106</ele>
        <time>2019-01-06T18:19:51Z</time>
      </trkpt>
      <trkpt lat="36.762225082305" lon="-3.86022118075">
        <ele>105</ele>
        <time>2019-01-06T18:19:57Z</time>
      </trkpt>
      <trkpt lat="36.76222382502" lon="-3.860234172695">
        <ele>104.8</ele>
        <time>2019-01-06T18:19:59Z</time>
      </trkpt>
      <trkpt lat="36.762222567735" lon="-3.860294606194">
        <ele>105</ele>
        <time>2019-01-06T18:20:05Z</time>
      </trkpt>
      <trkpt lat="36.762221058993" lon="-3.860321009179">
        <ele>105</ele>
        <time>2019-01-06T18:20:06Z</time>
      </trkpt>
      <trkpt lat="36.762207396496" lon="-3.860477918347">
        <ele>104</ele>
        <time>2019-01-06T18:20:12Z</time>
      </trkpt>
      <trkpt lat="36.762178898036" lon="-3.860585877219">
        <ele>103.8</ele>
        <time>2019-01-06T18:20:16Z</time>
      </trkpt>
      <trkpt lat="36.762203037908" lon="-3.860754018133">
        <ele>103.2</ele>
        <time>2019-01-06T18:20:22Z</time>
      </trkpt>
      <trkpt lat="36.762191806162" lon="-3.860949148765">
        <ele>103.2</ele>
        <time>2019-01-06T18:20:28Z</time>
      </trkpt>
      <trkpt lat="36.762193147266" lon="-3.860988459876">
        <ele>103.2</ele>
        <time>2019-01-06T18:20:31Z</time>
      </trkpt>
      <trkpt lat="36.762163726797" lon="-3.860948562032">
        <ele>103</ele>
        <time>2019-01-06T18:20:34Z</time>
      </trkpt>
      <trkpt lat="36.762175377638" lon="-3.860768686458">
        <ele>103.2</ele>
        <time>2019-01-06T18:20:40Z</time>
      </trkpt>
      <trkpt lat="36.762187615212" lon="-3.86071571285">
        <ele>103.4</ele>
        <time>2019-01-06T18:20:42Z</time>
      </trkpt>
      <trkpt lat="36.762179987683" lon="-3.860697943222">
        <ele>103.4</ele>
        <time>2019-01-06T18:20:43Z</time>
      </trkpt>
    </trkseg>
  </trk>
</gpx>